<?xml version="1.0" encoding="UTF-8" standalone="no" ?><gpx xmlns="http://www.topografix.com/GPX/1/1" xmlns:gpxx="http://www.garmin.com/xmlschemas/GpxExtensions/v3" xmlns:gpxtrkx="http://www.garmin.com/xmlschemas/TrackStatsExtension/v1" xmlns:wptx1="http://www.garmin.com/xmlschemas/WaypointExtension/v1" xmlns:gpxtpx="http://www.garmin.com/xmlschemas/TrackPointExtension/v1" creator="GPSMAP 64" version="1.1" xmlns:xsi="http://www.w3.org/2001/XMLSchema-instance" xsi:schemaLocation="http://www.topografix.com/GPX/1/1 http://www.topografix.com/GPX/1/1/gpx.xsd http://www.garmin.com/xmlschemas/GpxExtensions/v3 http://www8.garmin.com/xmlschemas/GpxExtensionsv3.xsd http://www.garmin.com/xmlschemas/TrackStatsExtension/v1 http://www8.garmin.com/xmlschemas/TrackStatsExtension.xsd http://www.garmin.com/xmlschemas/WaypointExtension/v1 http://www8.garmin.com/xmlschemas/WaypointExtensionv1.xsd http://www.garmin.com/xmlschemas/TrackPointExtension/v1 http://www.garmin.com/xmlschemas/TrackPointExtensionv1.xsd"><metadata><link href="http://www.garmin.com"><text>Garmin International</text></link><time>2026-08-15T14:12:22Z</time></metadata><trk><name>2026-08-15 LISA22</name><extensions><gpxx:TrackExtension><gpxx:DisplayColor>Cyan</gpxx:DisplayColor></gpxx:TrackExtension><gpxtrkx:TrackStatsExtension><gpxtrkx:Distance>15983.000</gpxtrkx:Distance><gpxtrkx:TotalElapsedTime>22011</gpxtrkx:TotalElapsedTime><gpxtrkx:MovingTime>15314</gpxtrkx:MovingTime><gpxtrkx:StoppedTime>2793</gpxtrkx:StoppedTime><gpxtrkx:MovingSpeed>1.044</gpxtrkx:MovingSpeed><gpxtrkx:MaxSpeed>180.439</gpxtrkx:MaxSpeed><gpxtrkx:MaxElevation>5197.151</gpxtrkx:MaxElevation><gpxtrkx:MinElevation>-378.499</gpxtrkx:MinElevation><gpxtrkx:Ascent>86213.000</gpxtrkx:Ascent><gpxtrkx:Descent>92874.648</gpxtrkx:Descent><gpxtrkx:AvgAscentRate>0.055</gpxtrkx:AvgAscentRate><gpxtrkx:MaxAscentRate>17.600</gpxtrkx:MaxAscentRate><gpxtrkx:AvgDescentRate>0.060</gpxtrkx:AvgDescentRate><gpxtrkx:MaxDescentRate>-7.949</gpxtrkx:MaxDescentRate></gpxtrkx:TrackStatsExtension></extensions><trkseg><trkpt lat="59.3593147583" lon="34.6871017199"><ele>145.74</ele><time>2026-08-15T08:05:31Z</time></trkpt><trkpt lat="59.3592594378" lon="34.6871475689"><ele>150.18</ele><time>2026-08-15T08:06:15Z</time></trkpt><trkpt lat="59.3592627905" lon="34.6872023866"><ele>153.79</ele><time>2026-08-15T08:06:45Z</time></trkpt><trkpt lat="59.3592882715" lon="34.6870961878"><ele>159.44</ele><time>2026-08-15T08:07:09Z</time></trkpt><trkpt lat="59.3591327872" lon="34.6870220080"><ele>159.84</ele><time>2026-08-15T08:07:20Z</time></trkpt><trkpt lat="59.3590713479" lon="34.6870493330"><ele>160.00</ele><time>2026-08-15T08:07:25Z</time></trkpt><trkpt lat="59.3588819169" lon="34.6870798431"><ele>159.88</ele><time>2026-08-15T08:07:38Z</time></trkpt><trkpt lat="59.3588167056" lon="34.6870764066"><ele>159.60</ele><time>2026-08-15T08:07:42Z</time></trkpt><trkpt lat="59.3586979341" lon="34.6871442162"><ele>158.35</ele><time>2026-08-15T08:07:49Z</time></trkpt><trkpt lat="59.3585307989" lon="34.6873659175"><ele>156.68</ele><time>2026-08-15T08:08:02Z</time></trkpt><trkpt lat="59.3584172241" lon="34.6875136066"><ele>155.78</ele><time>2026-08-15T08:08:11Z</time></trkpt><trkpt lat="59.3583567906" lon="34.6876468789"><ele>154.22</ele><time>2026-08-15T08:08:18Z</time></trkpt><trkpt lat="59.3582858797" lon="34.6879395749"><ele>150.63</ele><time>2026-08-15T08:08:28Z</time></trkpt><trkpt lat="59.3582303915" lon="34.6881617792"><ele>148.07</ele><time>2026-08-15T08:08:35Z</time></trkpt><trkpt lat="59.3581272941" lon="34.6884141583"><ele>144.11</ele><time>2026-08-15T08:08:43Z</time></trkpt><trkpt lat="59.3581023160" lon="34.6884740051"><ele>143.64</ele><time>2026-08-15T08:08:45Z</time></trkpt><trkpt lat="59.3580361828" lon="34.6886301599"><ele>141.37</ele><time>2026-08-15T08:08:51Z</time></trkpt><trkpt lat="59.3578494340" lon="34.6889006440"><ele>136.98</ele><time>2026-08-15T08:09:03Z</time></trkpt><trkpt lat="59.3577761762" lon="34.6890093572"><ele>135.00</ele><time>2026-08-15T08:09:09Z</time></trkpt><trkpt lat="59.3577133957" lon="34.6890734788"><ele>133.89</ele><time>2026-08-15T08:09:14Z</time></trkpt><trkpt lat="59.3575650360" lon="34.6893292945"><ele>130.19</ele><time>2026-08-15T08:09:25Z</time></trkpt><trkpt lat="59.3574830610" lon="34.6894002892"><ele>128.75</ele><time>2026-08-15T08:09:31Z</time></trkpt><trkpt lat="59.3573600147" lon="34.6893867943"><ele>128.83</ele><time>2026-08-15T08:09:47Z</time></trkpt><trkpt lat="59.3574315123" lon="34.6893964335"><ele>134.55</ele><time>2026-08-15T08:10:10Z</time></trkpt><trkpt lat="59.3574522156" lon="34.6893590502"><ele>137.16</ele><time>2026-08-15T08:10:22Z</time></trkpt><trkpt lat="59.3575049378" lon="34.6892905701"><ele>139.24</ele><time>2026-08-15T08:10:47Z</time></trkpt><trkpt lat="59.3575589173" lon="34.6893488243"><ele>140.76</ele><time>2026-08-15T08:11:19Z</time></trkpt><trkpt lat="59.3575799558" lon="34.6893294621"><ele>143.27</ele><time>2026-08-15T08:11:40Z</time></trkpt><trkpt lat="59.3575570732" lon="34.6891630813"><ele>147.72</ele><time>2026-08-15T08:12:03Z</time></trkpt><trkpt lat="59.3576334324" lon="34.6892655082"><ele>149.00</ele><time>2026-08-15T08:12:30Z</time></trkpt><trkpt lat="59.3576106336" lon="34.6891892329"><ele>152.50</ele><time>2026-08-15T08:13:01Z</time></trkpt><trkpt lat="59.3575276528" lon="34.6892582998"><ele>157.26</ele><time>2026-08-15T08:13:28Z</time></trkpt><trkpt lat="59.3576429877" lon="34.6891524363"><ele>158.15</ele><time>2026-08-15T08:13:57Z</time></trkpt><trkpt lat="59.3578092009" lon="34.6889701299"><ele>156.94</ele><time>2026-08-15T08:14:19Z</time></trkpt><trkpt lat="59.3578168284" lon="34.6889630891"><ele>156.94</ele><time>2026-08-15T08:14:20Z</time></trkpt><trkpt lat="59.3579224404" lon="34.6888623387"><ele>156.47</ele><time>2026-08-15T08:14:37Z</time></trkpt><trkpt lat="59.3580166530" lon="34.6887196787"><ele>155.28</ele><time>2026-08-15T08:14:54Z</time></trkpt><trkpt lat="59.3580899108" lon="34.6886961255"><ele>155.85</ele><time>2026-08-15T08:15:10Z</time></trkpt><trkpt lat="59.3579651881" lon="34.6889221016"><ele>153.36</ele><time>2026-08-15T08:15:26Z</time></trkpt><trkpt lat="59.3578203488" lon="34.6890991274"><ele>150.86</ele><time>2026-08-15T08:15:39Z</time></trkpt><trkpt lat="59.3576371204" lon="34.6893201582"><ele>147.58</ele><time>2026-08-15T08:15:56Z</time></trkpt><trkpt lat="59.3575162534" lon="34.6894632373"><ele>147.94</ele><time>2026-08-15T08:16:10Z</time></trkpt><trkpt lat="59.3574809656" lon="34.6894348226"><ele>149.34</ele><time>2026-08-15T08:16:32Z</time></trkpt><trkpt lat="59.3575484399" lon="34.6893717907"><ele>152.60</ele><time>2026-08-15T08:16:58Z</time></trkpt><trkpt lat="59.3575099669" lon="34.6893027239"><ele>156.12</ele><time>2026-08-15T08:17:31Z</time></trkpt><trkpt lat="59.3575268146" lon="34.6893429570"><ele>159.97</ele><time>2026-08-15T08:17:56Z</time></trkpt><trkpt lat="59.3575324304" lon="34.6893805079"><ele>160.99</ele><time>2026-08-15T08:18:26Z</time></trkpt><trkpt lat="59.3574945442" lon="34.6894498263"><ele>162.47</ele><time>2026-08-15T08:18:52Z</time></trkpt><trkpt lat="59.3574684765" lon="34.6895195637"><ele>161.80</ele><time>2026-08-15T08:19:21Z</time></trkpt><trkpt lat="59.3574867491" lon="34.6894099284"><ele>162.37</ele><time>2026-08-15T08:19:53Z</time></trkpt><trkpt lat="59.3575406447" lon="34.6894459706"><ele>162.82</ele><time>2026-08-15T08:20:33Z</time></trkpt><trkpt lat="59.3575108051" lon="34.6894783247"><ele>162.79</ele><time>2026-08-15T08:21:01Z</time></trkpt><trkpt lat="59.3575183488" lon="34.6894680988"><ele>164.12</ele><time>2026-08-15T08:21:29Z</time></trkpt><trkpt lat="59.3573493697" lon="34.6895738784"><ele>164.25</ele><time>2026-08-15T08:21:44Z</time></trkpt><trkpt lat="59.3572420813" lon="34.6896037180"><ele>164.13</ele><time>2026-08-15T08:21:52Z</time></trkpt><trkpt lat="59.3570632953" lon="34.6896511596"><ele>163.33</ele><time>2026-08-15T08:22:08Z</time></trkpt><trkpt lat="59.3567497283" lon="34.6901865117"><ele>160.66</ele><time>2026-08-15T08:22:29Z</time></trkpt><trkpt lat="59.3565261830" lon="34.6903126594"><ele>159.52</ele><time>2026-08-15T08:22:42Z</time></trkpt><trkpt lat="59.3562512565" lon="34.6903348714"><ele>158.16</ele><time>2026-08-15T08:22:54Z</time></trkpt><trkpt lat="59.3559379410" lon="34.6904497035"><ele>155.01</ele><time>2026-08-15T08:23:12Z</time></trkpt><trkpt lat="59.3556238711" lon="34.6907641925"><ele>151.27</ele><time>2026-08-15T08:23:32Z</time></trkpt><trkpt lat="59.3553947937" lon="34.6910377778"><ele>148.60</ele><time>2026-08-15T08:23:46Z</time></trkpt><trkpt lat="59.3551020138" lon="34.6912987065"><ele>147.51</ele><time>2026-08-15T08:24:01Z</time></trkpt><trkpt lat="59.3549694959" lon="34.6913080104"><ele>147.20</ele><time>2026-08-15T08:24:10Z</time></trkpt><trkpt lat="59.3547958229" lon="34.6913338266"><ele>146.86</ele><time>2026-08-15T08:24:19Z</time></trkpt><trkpt lat="59.3546589464" lon="34.6914872155"><ele>143.37</ele><time>2026-08-15T08:24:32Z</time></trkpt><trkpt lat="59.3544745445" lon="34.6917389240"><ele>139.33</ele><time>2026-08-15T08:24:48Z</time></trkpt><trkpt lat="59.3543246761" lon="34.6918503195"><ele>137.91</ele><time>2026-08-15T08:25:17Z</time></trkpt><trkpt lat="59.3542998657" lon="34.6918825898"><ele>145.36</ele><time>2026-08-15T08:25:48Z</time></trkpt><trkpt lat="59.3543091696" lon="34.6919087414"><ele>148.49</ele><time>2026-08-15T08:26:21Z</time></trkpt><trkpt lat="59.3542847782" lon="34.6918026265"><ele>150.71</ele><time>2026-08-15T08:26:41Z</time></trkpt><trkpt lat="59.3542227522" lon="34.6920969989"><ele>151.71</ele><time>2026-08-15T08:27:05Z</time></trkpt><trkpt lat="59.3542115204" lon="34.6923187003"><ele>151.86</ele><time>2026-08-15T08:27:13Z</time></trkpt><trkpt lat="59.3542031385" lon="34.6925488673"><ele>151.75</ele><time>2026-08-15T08:27:20Z</time></trkpt><trkpt lat="59.3542275298" lon="34.6927729994"><ele>151.13</ele><time>2026-08-15T08:27:28Z</time></trkpt><trkpt lat="59.3542258535" lon="34.6930708922"><ele>150.74</ele><time>2026-08-15T08:27:36Z</time></trkpt><trkpt lat="59.3541349098" lon="34.6934676077"><ele>148.60</ele><time>2026-08-15T08:27:48Z</time></trkpt><trkpt lat="59.3541057408" lon="34.6936465614"><ele>147.39</ele><time>2026-08-15T08:27:56Z</time></trkpt><trkpt lat="59.3540570419" lon="34.6940911375"><ele>144.81</ele><time>2026-08-15T08:28:08Z</time></trkpt><trkpt lat="59.3540581316" lon="34.6941231564"><ele>144.46</ele><time>2026-08-15T08:28:09Z</time></trkpt><trkpt lat="59.3540529348" lon="34.6942169499"><ele>143.62</ele><time>2026-08-15T08:28:13Z</time></trkpt><trkpt lat="59.3539891485" lon="34.6946999151"><ele>140.86</ele><time>2026-08-15T08:28:26Z</time></trkpt><trkpt lat="59.3539748993" lon="34.6949132346"><ele>140.08</ele><time>2026-08-15T08:28:34Z</time></trkpt><trkpt lat="59.3539653439" lon="34.6952431463"><ele>139.08</ele><time>2026-08-15T08:28:46Z</time></trkpt><trkpt lat="59.3540101871" lon="34.6954588965"><ele>138.39</ele><time>2026-08-15T08:28:54Z</time></trkpt><trkpt lat="59.3540456425" lon="34.6958876308"><ele>136.97</ele><time>2026-08-15T08:29:06Z</time></trkpt><trkpt lat="59.3541023042" lon="34.6963429358"><ele>136.66</ele><time>2026-08-15T08:29:16Z</time></trkpt><trkpt lat="59.3541538529" lon="34.6971553937"><ele>137.85</ele><time>2026-08-15T08:29:31Z</time></trkpt><trkpt lat="59.3540534377" lon="34.6978562884"><ele>139.54</ele><time>2026-08-15T08:29:45Z</time></trkpt><trkpt lat="59.3539543636" lon="34.6986324526"><ele>146.06</ele><time>2026-08-15T08:30:01Z</time></trkpt><trkpt lat="59.3539343309" lon="34.6986549161"><ele>148.35</ele><time>2026-08-15T08:30:13Z</time></trkpt><trkpt lat="59.3539235182" lon="34.6987464465"><ele>154.33</ele><time>2026-08-15T08:30:47Z</time></trkpt><trkpt lat="59.3539268710" lon="34.6987636294"><ele>153.99</ele><time>2026-08-15T08:31:18Z</time></trkpt><trkpt lat="59.3539162260" lon="34.6987563372"><ele>152.81</ele><time>2026-08-15T08:31:43Z</time></trkpt><trkpt lat="59.3538978696" lon="34.6987429261"><ele>152.80</ele><time>2026-08-15T08:32:14Z</time></trkpt><trkpt lat="59.3538863864" lon="34.6987696644"><ele>153.75</ele><time>2026-08-15T08:32:43Z</time></trkpt><trkpt lat="59.3539142143" lon="34.6987571754"><ele>152.94</ele><time>2026-08-15T08:33:18Z</time></trkpt><trkpt lat="59.3539030664" lon="34.6987403277"><ele>153.68</ele><time>2026-08-15T08:34:01Z</time></trkpt><trkpt lat="59.3538930081" lon="34.6987517271"><ele>154.01</ele><time>2026-08-15T08:34:10Z</time></trkpt><trkpt lat="59.3537019007" lon="34.6990632825"><ele>152.88</ele><time>2026-08-15T08:34:26Z</time></trkpt><trkpt lat="59.3535926007" lon="34.6996549610"><ele>151.21</ele><time>2026-08-15T08:34:43Z</time></trkpt><trkpt lat="59.3535159063" lon="34.7003483120"><ele>150.93</ele><time>2026-08-15T08:35:01Z</time></trkpt><trkpt lat="59.3534545507" lon="34.7010530625"><ele>149.67</ele><time>2026-08-15T08:35:17Z</time></trkpt><trkpt lat="59.3533683009" lon="34.7019106988"><ele>150.01</ele><time>2026-08-15T08:35:33Z</time></trkpt><trkpt lat="59.3533128127" lon="34.7026880365"><ele>148.03</ele><time>2026-08-15T08:35:48Z</time></trkpt><trkpt lat="59.3532902654" lon="34.7036467586"><ele>149.14</ele><time>2026-08-15T08:36:06Z</time></trkpt><trkpt lat="59.3532404769" lon="34.7043054923"><ele>148.87</ele><time>2026-08-15T08:36:20Z</time></trkpt><trkpt lat="59.3530439213" lon="34.7047834285"><ele>149.73</ele><time>2026-08-15T08:36:33Z</time></trkpt><trkpt lat="59.3528026063" lon="34.7052088100"><ele>147.00</ele><time>2026-08-15T08:36:46Z</time></trkpt><trkpt lat="59.3526119180" lon="34.7056394722"><ele>147.36</ele><time>2026-08-15T08:36:58Z</time></trkpt><trkpt lat="59.3523625564" lon="34.7064410336"><ele>146.40</ele><time>2026-08-15T08:37:15Z</time></trkpt><trkpt lat="59.3522476405" lon="34.7072633822"><ele>150.57</ele><time>2026-08-15T08:37:30Z</time></trkpt><trkpt lat="59.3521454651" lon="34.7077947110"><ele>154.57</ele><time>2026-08-15T08:37:40Z</time></trkpt><trkpt lat="59.3519001268" lon="34.7077774443"><ele>155.98</ele><time>2026-08-15T08:37:49Z</time></trkpt><trkpt lat="59.3514378648" lon="34.7075745184"><ele>156.75</ele><time>2026-08-15T08:38:05Z</time></trkpt><trkpt lat="59.3511727452" lon="34.7070676647"><ele>153.06</ele><time>2026-08-15T08:38:18Z</time></trkpt><trkpt lat="59.3510724138" lon="34.7059676237"><ele>153.24</ele><time>2026-08-15T08:38:36Z</time></trkpt><trkpt lat="59.3510726653" lon="34.7049672436"><ele>156.00</ele><time>2026-08-15T08:38:52Z</time></trkpt><trkpt lat="59.3510281574" lon="34.7040286381"><ele>155.44</ele><time>2026-08-15T08:39:07Z</time></trkpt><trkpt lat="59.3509882595" lon="34.7031342052"><ele>152.87</ele><time>2026-08-15T08:39:19Z</time></trkpt><trkpt lat="59.3509721663" lon="34.7017164063"><ele>150.94</ele><time>2026-08-15T08:39:36Z</time></trkpt><trkpt lat="59.3508644588" lon="34.7007358912"><ele>149.29</ele><time>2026-08-15T08:39:49Z</time></trkpt><trkpt lat="59.3506802246" lon="34.6998953540"><ele>148.99</ele><time>2026-08-15T08:40:02Z</time></trkpt><trkpt lat="59.3505710084" lon="34.6995112952"><ele>149.08</ele><time>2026-08-15T08:40:15Z</time></trkpt><trkpt lat="59.3505685776" lon="34.6994568966"><ele>152.52</ele><time>2026-08-15T08:40:41Z</time></trkpt><trkpt lat="59.3505610339" lon="34.6994881611"><ele>154.34</ele><time>2026-08-15T08:41:05Z</time></trkpt><trkpt lat="59.3505389057" lon="34.6994130593"><ele>154.97</ele><time>2026-08-15T08:41:23Z</time></trkpt><trkpt lat="59.3505296856" lon="34.6994197648"><ele>154.77</ele><time>2026-08-15T08:41:46Z</time></trkpt><trkpt lat="59.3505311105" lon="34.6994062699"><ele>154.85</ele><time>2026-08-15T08:42:09Z</time></trkpt><trkpt lat="59.3505170289" lon="34.6994008217"><ele>154.97</ele><time>2026-08-15T08:42:17Z</time></trkpt><trkpt lat="59.3505605310" lon="34.6993335150"><ele>174.40</ele><time>2026-08-15T09:39:09Z</time></trkpt><trkpt lat="59.3505341280" lon="34.6993749216"><ele>160.89</ele><time>2026-08-15T09:39:26Z</time></trkpt><trkpt lat="59.3505271710" lon="34.6993869077"><ele>160.90</ele><time>2026-08-15T09:39:50Z</time></trkpt><trkpt lat="59.3505281769" lon="34.6994006541"><ele>159.52</ele><time>2026-08-15T09:40:11Z</time></trkpt><trkpt lat="59.3505334575" lon="34.6994303260"><ele>158.64</ele><time>2026-08-15T09:40:43Z</time></trkpt><trkpt lat="59.3505421747" lon="34.6994408034"><ele>158.29</ele><time>2026-08-15T09:41:10Z</time></trkpt><trkpt lat="59.3505533226" lon="34.6994782705"><ele>157.45</ele><time>2026-08-15T09:41:26Z</time></trkpt><trkpt lat="59.3505582679" lon="34.6994802821"><ele>156.99</ele><time>2026-08-15T09:41:57Z</time></trkpt><trkpt lat="59.3505650572" lon="34.6994798630"><ele>156.18</ele><time>2026-08-15T09:42:22Z</time></trkpt><trkpt lat="59.3505711760" lon="34.6994910948"><ele>155.36</ele><time>2026-08-15T09:42:59Z</time></trkpt><trkpt lat="59.3505810667" lon="34.6994886640"><ele>155.51</ele><time>2026-08-15T09:43:44Z</time></trkpt><trkpt lat="59.3505974114" lon="34.6995668672"><ele>155.90</ele><time>2026-08-15T09:44:02Z</time></trkpt><trkpt lat="59.3505956512" lon="34.6995405480"><ele>156.47</ele><time>2026-08-15T09:44:14Z</time></trkpt><trkpt lat="59.3505974114" lon="34.6995073557"><ele>156.57</ele><time>2026-08-15T09:44:35Z</time></trkpt><trkpt lat="59.3505865987" lon="34.6995266341"><ele>157.01</ele><time>2026-08-15T09:45:07Z</time></trkpt><trkpt lat="59.3506048713" lon="34.6996101178"><ele>156.56</ele><time>2026-08-15T09:45:39Z</time></trkpt><trkpt lat="59.3505603634" lon="34.6995391231"><ele>156.75</ele><time>2026-08-15T09:45:43Z</time></trkpt><trkpt lat="59.3502152804" lon="34.6994211897"><ele>158.07</ele><time>2026-08-15T09:46:04Z</time></trkpt><trkpt lat="59.3498574570" lon="34.6994196810"><ele>159.66</ele><time>2026-08-15T09:46:23Z</time></trkpt><trkpt lat="59.3495731428" lon="34.6993983909"><ele>159.53</ele><time>2026-08-15T09:46:39Z</time></trkpt><trkpt lat="59.3492391240" lon="34.6993924398"><ele>160.53</ele><time>2026-08-15T09:46:55Z</time></trkpt><trkpt lat="59.3488661293" lon="34.6993727423"><ele>159.73</ele><time>2026-08-15T09:47:13Z</time></trkpt><trkpt lat="59.3486225512" lon="34.6993538830"><ele>158.98</ele><time>2026-08-15T09:47:26Z</time></trkpt><trkpt lat="59.3484696653" lon="34.6993214451"><ele>159.39</ele><time>2026-08-15T09:47:40Z</time></trkpt><trkpt lat="59.3484347127" lon="34.6993310843"><ele>161.33</ele><time>2026-08-15T09:48:14Z</time></trkpt><trkpt lat="59.3484127522" lon="34.6993377060"><ele>162.10</ele><time>2026-08-15T09:48:49Z</time></trkpt><trkpt lat="59.3481388316" lon="34.6993102971"><ele>161.59</ele><time>2026-08-15T09:49:04Z</time></trkpt><trkpt lat="59.3478381727" lon="34.6992819663"><ele>159.95</ele><time>2026-08-15T09:49:16Z</time></trkpt><trkpt lat="59.3475596420" lon="34.6992819663"><ele>156.68</ele><time>2026-08-15T09:49:29Z</time></trkpt><trkpt lat="59.3471850548" lon="34.6992677171"><ele>157.18</ele><time>2026-08-15T09:49:43Z</time></trkpt><trkpt lat="59.3465751875" lon="34.6992562339"><ele>154.70</ele><time>2026-08-15T09:50:03Z</time></trkpt><trkpt lat="59.3459877837" lon="34.6992180124"><ele>154.87</ele><time>2026-08-15T09:50:22Z</time></trkpt><trkpt lat="59.3454272021" lon="34.6991961356"><ele>156.73</ele><time>2026-08-15T09:50:42Z</time></trkpt><trkpt lat="59.3450262956" lon="34.6991671342"><ele>159.41</ele><time>2026-08-15T09:50:57Z</time></trkpt><trkpt lat="59.3446242996" lon="34.6991373785"><ele>163.42</ele><time>2026-08-15T09:51:12Z</time></trkpt><trkpt lat="59.3441847526" lon="34.6991220396"><ele>165.58</ele><time>2026-08-15T09:51:28Z</time></trkpt><trkpt lat="59.3438874464" lon="34.6990825608"><ele>160.92</ele><time>2026-08-15T09:51:40Z</time></trkpt><trkpt lat="59.3436332233" lon="34.6990098897"><ele>156.98</ele><time>2026-08-15T09:51:52Z</time></trkpt><trkpt lat="59.3434792478" lon="34.6989946347"><ele>154.64</ele><time>2026-08-15T09:52:01Z</time></trkpt><trkpt lat="59.3429954443" lon="34.6990570799"><ele>151.65</ele><time>2026-08-15T09:52:17Z</time></trkpt><trkpt lat="59.3426351063" lon="34.6990212891"><ele>155.39</ele><time>2026-08-15T09:52:30Z</time></trkpt><trkpt lat="59.3423911091" lon="34.6990258154"><ele>155.63</ele><time>2026-08-15T09:52:41Z</time></trkpt><trkpt lat="59.3420834932" lon="34.6990485303"><ele>151.55</ele><time>2026-08-15T09:52:54Z</time></trkpt><trkpt lat="59.3417407572" lon="34.6990615223"><ele>149.23</ele><time>2026-08-15T09:53:08Z</time></trkpt><trkpt lat="59.3414322194" lon="34.6990399808"><ele>150.25</ele><time>2026-08-15T09:53:20Z</time></trkpt><trkpt lat="59.3410702888" lon="34.6990440879"><ele>152.16</ele><time>2026-08-15T09:53:35Z</time></trkpt><trkpt lat="59.3407554645" lon="34.6990044415"><ele>151.64</ele><time>2026-08-15T09:53:48Z</time></trkpt><trkpt lat="59.3404008262" lon="34.6990126558"><ele>153.03</ele><time>2026-08-15T09:54:03Z</time></trkpt><trkpt lat="59.3402067851" lon="34.6989590954"><ele>153.96</ele><time>2026-08-15T09:54:15Z</time></trkpt><trkpt lat="59.3399541546" lon="34.6989627834"><ele>152.17</ele><time>2026-08-15T09:54:27Z</time></trkpt><trkpt lat="59.3396642245" lon="34.6989458520"><ele>151.03</ele><time>2026-08-15T09:54:39Z</time></trkpt><trkpt lat="59.3393359892" lon="34.6989492886"><ele>148.24</ele><time>2026-08-15T09:54:52Z</time></trkpt><trkpt lat="59.3390313070" lon="34.6989635378"><ele>146.08</ele><time>2026-08-15T09:55:03Z</time></trkpt><trkpt lat="59.3387568835" lon="34.6990245581"><ele>149.22</ele><time>2026-08-15T09:55:14Z</time></trkpt><trkpt lat="59.3386652693" lon="34.6990708262"><ele>151.72</ele><time>2026-08-15T09:55:19Z</time></trkpt><trkpt lat="59.3384310789" lon="34.6992139891"><ele>152.85</ele><time>2026-08-15T09:55:30Z</time></trkpt><trkpt lat="59.3381153326" lon="34.6993727423"><ele>153.76</ele><time>2026-08-15T09:55:41Z</time></trkpt><trkpt lat="59.3376933038" lon="34.6997284703"><ele>157.10</ele><time>2026-08-15T09:55:54Z</time></trkpt><trkpt lat="59.3374073133" lon="34.6999556199"><ele>155.61</ele><time>2026-08-15T09:56:06Z</time></trkpt><trkpt lat="59.3370062392" lon="34.7002837714"><ele>154.05</ele><time>2026-08-15T09:56:21Z</time></trkpt><trkpt lat="59.3365749065" lon="34.7006037086"><ele>155.68</ele><time>2026-08-15T09:56:35Z</time></trkpt><trkpt lat="59.3362740800" lon="34.7008740250"><ele>155.97</ele><time>2026-08-15T09:56:47Z</time></trkpt><trkpt lat="59.3358926196" lon="34.7011729237"><ele>154.67</ele><time>2026-08-15T09:56:59Z</time></trkpt><trkpt lat="59.3355309404" lon="34.7014458384"><ele>155.46</ele><time>2026-08-15T09:57:14Z</time></trkpt><trkpt lat="59.3352118414" lon="34.7016543802"><ele>155.84</ele><time>2026-08-15T09:57:25Z</time></trkpt><trkpt lat="59.3348751403" lon="34.7019575536"><ele>159.32</ele><time>2026-08-15T09:57:37Z</time></trkpt><trkpt lat="59.3345305603" lon="34.7022369225"><ele>158.86</ele><time>2026-08-15T09:57:49Z</time></trkpt><trkpt lat="59.3341957871" lon="34.7025125194"><ele>156.85</ele><time>2026-08-15T09:58:01Z</time></trkpt><trkpt lat="59.3337614369" lon="34.7028333787"><ele>154.21</ele><time>2026-08-15T09:58:15Z</time></trkpt><trkpt lat="59.3336019292" lon="34.7028525732"><ele>152.76</ele><time>2026-08-15T09:58:20Z</time></trkpt><trkpt lat="59.3334100675" lon="34.7022328153"><ele>152.74</ele><time>2026-08-15T09:58:33Z</time></trkpt><trkpt lat="59.3332114164" lon="34.7019024007"><ele>158.32</ele><time>2026-08-15T09:58:45Z</time></trkpt><trkpt lat="59.3330097478" lon="34.7015362792"><ele>156.95</ele><time>2026-08-15T09:59:00Z</time></trkpt><trkpt lat="59.3328372482" lon="34.7012320999"><ele>156.73</ele><time>2026-08-15T09:59:13Z</time></trkpt><trkpt lat="59.3326868769" lon="34.7008295171"><ele>152.90</ele><time>2026-08-15T09:59:23Z</time></trkpt><trkpt lat="59.3324574642" lon="34.7002623975"><ele>145.66</ele><time>2026-08-15T09:59:36Z</time></trkpt><trkpt lat="59.3322622497" lon="34.6996649355"><ele>141.67</ele><time>2026-08-15T09:59:49Z</time></trkpt><trkpt lat="59.3321101181" lon="34.6990899369"><ele>139.39</ele><time>2026-08-15T10:00:01Z</time></trkpt><trkpt lat="59.3319768459" lon="34.6988355462"><ele>143.40</ele><time>2026-08-15T10:00:10Z</time></trkpt><trkpt lat="59.3318083696" lon="34.6984229889"><ele>144.51</ele><time>2026-08-15T10:00:23Z</time></trkpt><trkpt lat="59.3316566572" lon="34.6979453042"><ele>146.26</ele><time>2026-08-15T10:00:36Z</time></trkpt><trkpt lat="59.3316133227" lon="34.6976896562"><ele>146.72</ele><time>2026-08-15T10:00:43Z</time></trkpt><trkpt lat="59.3314740155" lon="34.6972232033"><ele>150.11</ele><time>2026-08-15T10:00:58Z</time></trkpt><trkpt lat="59.3312725145" lon="34.6968417428"><ele>155.11</ele><time>2026-08-15T10:01:13Z</time></trkpt><trkpt lat="59.3310667388" lon="34.6966438461"><ele>156.11</ele><time>2026-08-15T10:01:24Z</time></trkpt><trkpt lat="59.3308882881" lon="34.6962493937"><ele>153.56</ele><time>2026-08-15T10:01:36Z</time></trkpt><trkpt lat="59.3306307122" lon="34.6959131956"><ele>153.06</ele><time>2026-08-15T10:01:49Z</time></trkpt><trkpt lat="59.3304060772" lon="34.6954671945"><ele>155.54</ele><time>2026-08-15T10:02:02Z</time></trkpt><trkpt lat="59.3303440511" lon="34.6953042503"><ele>158.36</ele><time>2026-08-15T10:02:16Z</time></trkpt><trkpt lat="59.3301406223" lon="34.6949675493"><ele>161.33</ele><time>2026-08-15T10:02:29Z</time></trkpt><trkpt lat="59.3300225213" lon="34.6946351230"><ele>161.58</ele><time>2026-08-15T10:02:41Z</time></trkpt><trkpt lat="59.3299529515" lon="34.6944383159"><ele>161.73</ele><time>2026-08-15T10:02:47Z</time></trkpt><trkpt lat="59.3297287356" lon="34.6939519141"><ele>162.51</ele><time>2026-08-15T10:03:02Z</time></trkpt><trkpt lat="59.3294893485" lon="34.6936299652"><ele>165.73</ele><time>2026-08-15T10:03:14Z</time></trkpt><trkpt lat="59.3292750232" lon="34.6932805236"><ele>166.18</ele><time>2026-08-15T10:03:25Z</time></trkpt><trkpt lat="59.3290290143" lon="34.6926761884"><ele>164.40</ele><time>2026-08-15T10:03:38Z</time></trkpt><trkpt lat="59.3287783116" lon="34.6919110883"><ele>161.20</ele><time>2026-08-15T10:03:54Z</time></trkpt><trkpt lat="59.3286008667" lon="34.6912749857"><ele>159.56</ele><time>2026-08-15T10:04:08Z</time></trkpt><trkpt lat="59.3284107652" lon="34.6907083690"><ele>157.81</ele><time>2026-08-15T10:04:23Z</time></trkpt><trkpt lat="59.3282653391" lon="34.6903854981"><ele>157.75</ele><time>2026-08-15T10:04:36Z</time></trkpt><trkpt lat="59.3281198293" lon="34.6899311151"><ele>157.94</ele><time>2026-08-15T10:04:48Z</time></trkpt><trkpt lat="59.3279327452" lon="34.6893520933"><ele>159.05</ele><time>2026-08-15T10:05:02Z</time></trkpt><trkpt lat="59.3277402967" lon="34.6888801921"><ele>164.30</ele><time>2026-08-15T10:05:14Z</time></trkpt><trkpt lat="59.3275467586" lon="34.6884451713"><ele>170.96</ele><time>2026-08-15T10:05:26Z</time></trkpt><trkpt lat="59.3272730056" lon="34.6880302671"><ele>178.63</ele><time>2026-08-15T10:05:39Z</time></trkpt><trkpt lat="59.3269890267" lon="34.6874021273"><ele>170.18</ele><time>2026-08-15T10:05:53Z</time></trkpt><trkpt lat="59.3268670700" lon="34.6869493369"><ele>164.37</ele><time>2026-08-15T10:06:05Z</time></trkpt><trkpt lat="59.3268141802" lon="34.6868208423"><ele>163.00</ele><time>2026-08-15T10:06:10Z</time></trkpt><trkpt lat="59.3267762940" lon="34.6866034996"><ele>161.15</ele><time>2026-08-15T10:06:22Z</time></trkpt><trkpt lat="59.3267721031" lon="34.6865889989"><ele>160.93</ele><time>2026-08-15T10:06:23Z</time></trkpt><trkpt lat="59.3267162796" lon="34.6863591671"><ele>160.03</ele><time>2026-08-15T10:06:30Z</time></trkpt><trkpt lat="59.3266585283" lon="34.6861125715"><ele>159.02</ele><time>2026-08-15T10:06:44Z</time></trkpt><trkpt lat="59.3265302852" lon="34.6857109107"><ele>158.32</ele><time>2026-08-15T10:06:59Z</time></trkpt><trkpt lat="59.3263542652" lon="34.6851912327"><ele>158.00</ele><time>2026-08-15T10:07:11Z</time></trkpt><trkpt lat="59.3261943385" lon="34.6846924257"><ele>155.40</ele><time>2026-08-15T10:07:23Z</time></trkpt><trkpt lat="59.3260993715" lon="34.6844366100"><ele>153.68</ele><time>2026-08-15T10:07:30Z</time></trkpt><trkpt lat="59.3260515947" lon="34.6838650480"><ele>152.32</ele><time>2026-08-15T10:07:43Z</time></trkpt><trkpt lat="59.3259915803" lon="34.6832781471"><ele>152.21</ele><time>2026-08-15T10:07:57Z</time></trkpt><trkpt lat="59.3259916641" lon="34.6832499839"><ele>152.28</ele><time>2026-08-15T10:07:58Z</time></trkpt><trkpt lat="59.3260080926" lon="34.6830792446"><ele>152.05</ele><time>2026-08-15T10:08:03Z</time></trkpt><trkpt lat="59.3259391095" lon="34.6826719679"><ele>152.98</ele><time>2026-08-15T10:08:19Z</time></trkpt><trkpt lat="59.3258393649" lon="34.6823731530"><ele>153.10</ele><time>2026-08-15T10:08:30Z</time></trkpt><trkpt lat="59.3258298934" lon="34.6823416371"><ele>152.99</ele><time>2026-08-15T10:08:31Z</time></trkpt><trkpt lat="59.3258141354" lon="34.6821787767"><ele>152.34</ele><time>2026-08-15T10:08:36Z</time></trkpt><trkpt lat="59.3257513549" lon="34.6816391498"><ele>151.74</ele><time>2026-08-15T10:08:51Z</time></trkpt><trkpt lat="59.3256653566" lon="34.6812329628"><ele>150.86</ele><time>2026-08-15T10:09:03Z</time></trkpt><trkpt lat="59.3255045917" lon="34.6807455551"><ele>152.18</ele><time>2026-08-15T10:09:14Z</time></trkpt><trkpt lat="59.3253408093" lon="34.6799391322"><ele>154.27</ele><time>2026-08-15T10:09:31Z</time></trkpt><trkpt lat="59.3253408093" lon="34.6794963162"><ele>150.56</ele><time>2026-08-15T10:09:41Z</time></trkpt><trkpt lat="59.3252936192" lon="34.6789025422"><ele>152.22</ele><time>2026-08-15T10:09:53Z</time></trkpt><trkpt lat="59.3252399750" lon="34.6783780027"><ele>151.86</ele><time>2026-08-15T10:10:04Z</time></trkpt><trkpt lat="59.3251848221" lon="34.6778199356"><ele>153.04</ele><time>2026-08-15T10:10:16Z</time></trkpt><trkpt lat="59.3251797929" lon="34.6777802892"><ele>152.85</ele><time>2026-08-15T10:10:17Z</time></trkpt><trkpt lat="59.3251146656" lon="34.6775965579"><ele>154.90</ele><time>2026-08-15T10:10:23Z</time></trkpt><trkpt lat="59.3250630330" lon="34.6772470325"><ele>156.44</ele><time>2026-08-15T10:10:35Z</time></trkpt><trkpt lat="59.3249702454" lon="34.6767201461"><ele>158.15</ele><time>2026-08-15T10:10:48Z</time></trkpt><trkpt lat="59.3248393200" lon="34.6761998814"><ele>157.17</ele><time>2026-08-15T10:11:00Z</time></trkpt><trkpt lat="59.3246423453" lon="34.6757154074"><ele>157.21</ele><time>2026-08-15T10:11:13Z</time></trkpt><trkpt lat="59.3244598713" lon="34.6754016727"><ele>164.06</ele><time>2026-08-15T10:11:25Z</time></trkpt><trkpt lat="59.3242671713" lon="34.6751864254"><ele>168.27</ele><time>2026-08-15T10:11:36Z</time></trkpt><trkpt lat="59.3240807578" lon="34.6749674063"><ele>169.99</ele><time>2026-08-15T10:11:45Z</time></trkpt><trkpt lat="59.3239930831" lon="34.6748212259"><ele>169.47</ele><time>2026-08-15T10:11:50Z</time></trkpt><trkpt lat="59.3238496687" lon="34.6746780630"><ele>165.21</ele><time>2026-08-15T10:11:56Z</time></trkpt><trkpt lat="59.3237220962" lon="34.6746009495"><ele>163.81</ele><time>2026-08-15T10:12:02Z</time></trkpt><trkpt lat="59.3233185913" lon="34.6744446270"><ele>163.76</ele><time>2026-08-15T10:12:17Z</time></trkpt><trkpt lat="59.3230010010" lon="34.6743332315"><ele>159.18</ele><time>2026-08-15T10:12:28Z</time></trkpt><trkpt lat="59.3225506414" lon="34.6741184033"><ele>158.12</ele><time>2026-08-15T10:12:44Z</time></trkpt><trkpt lat="59.3221010361" lon="34.6738159005"><ele>159.20</ele><time>2026-08-15T10:13:01Z</time></trkpt><trkpt lat="59.3217570428" lon="34.6733134054"><ele>161.11</ele><time>2026-08-15T10:13:18Z</time></trkpt><trkpt lat="59.3214863911" lon="34.6727110818"><ele>159.02</ele><time>2026-08-15T10:13:34Z</time></trkpt><trkpt lat="59.3212261330" lon="34.6721773222"><ele>158.78</ele><time>2026-08-15T10:13:49Z</time></trkpt><trkpt lat="59.3210236263" lon="34.6718084347"><ele>158.53</ele><time>2026-08-15T10:14:02Z</time></trkpt><trkpt lat="59.3208347820" lon="34.6714345179"><ele>159.04</ele><time>2026-08-15T10:14:18Z</time></trkpt><trkpt lat="59.3207028508" lon="34.6710429154"><ele>157.36</ele><time>2026-08-15T10:14:31Z</time></trkpt><trkpt lat="59.3205649685" lon="34.6706014406"><ele>153.63</ele><time>2026-08-15T10:14:45Z</time></trkpt><trkpt lat="59.3204309419" lon="34.6701257676"><ele>151.76</ele><time>2026-08-15T10:14:59Z</time></trkpt><trkpt lat="59.3203079794" lon="34.6697288845"><ele>152.11</ele><time>2026-08-15T10:15:11Z</time></trkpt><trkpt lat="59.3201640621" lon="34.6691308357"><ele>151.11</ele><time>2026-08-15T10:15:27Z</time></trkpt><trkpt lat="59.3200244196" lon="34.6685481258"><ele>151.79</ele><time>2026-08-15T10:15:43Z</time></trkpt><trkpt lat="59.3199346494" lon="34.6681387536"><ele>152.98</ele><time>2026-08-15T10:15:56Z</time></trkpt><trkpt lat="59.3197907321" lon="34.6674825344"><ele>152.18</ele><time>2026-08-15T10:16:14Z</time></trkpt><trkpt lat="59.3196277041" lon="34.6668369602"><ele>152.10</ele><time>2026-08-15T10:16:28Z</time></trkpt><trkpt lat="59.3194010574" lon="34.6657885518"><ele>156.99</ele><time>2026-08-15T10:16:49Z</time></trkpt><trkpt lat="59.3192719761" lon="34.6649036743"><ele>156.00</ele><time>2026-08-15T10:17:06Z</time></trkpt><trkpt lat="59.3192086089" lon="34.6642924659"><ele>154.56</ele><time>2026-08-15T10:17:19Z</time></trkpt><trkpt lat="59.3190797791" lon="34.6637487318"><ele>154.30</ele><time>2026-08-15T10:17:33Z</time></trkpt><trkpt lat="59.3189519551" lon="34.6634621546"><ele>155.69</ele><time>2026-08-15T10:17:46Z</time></trkpt><trkpt lat="59.3187782820" lon="34.6630221047"><ele>157.83</ele><time>2026-08-15T10:18:02Z</time></trkpt><trkpt lat="59.3185614422" lon="34.6625130717"><ele>158.93</ele><time>2026-08-15T10:18:19Z</time></trkpt><trkpt lat="59.3184117414" lon="34.6618799865"><ele>159.15</ele><time>2026-08-15T10:18:37Z</time></trkpt><trkpt lat="59.3183678202" lon="34.6612098534"><ele>158.12</ele><time>2026-08-15T10:18:55Z</time></trkpt><trkpt lat="59.3183602765" lon="34.6608736552"><ele>155.87</ele><time>2026-08-15T10:19:06Z</time></trkpt><trkpt lat="59.3183660600" lon="34.6608122159"><ele>155.27</ele><time>2026-08-15T10:19:08Z</time></trkpt><trkpt lat="59.3183213845" lon="34.6601388976"><ele>155.81</ele><time>2026-08-15T10:19:25Z</time></trkpt><trkpt lat="59.3182527367" lon="34.6594520845"><ele>157.92</ele><time>2026-08-15T10:19:43Z</time></trkpt><trkpt lat="59.3184219673" lon="34.6590123698"><ele>157.15</ele><time>2026-08-15T10:19:58Z</time></trkpt><trkpt lat="59.3188346922" lon="34.6586274728"><ele>159.93</ele><time>2026-08-15T10:20:20Z</time></trkpt><trkpt lat="59.3192112073" lon="34.6583709028"><ele>159.77</ele><time>2026-08-15T10:20:39Z</time></trkpt><trkpt lat="59.3194653466" lon="34.6582647879"><ele>155.91</ele><time>2026-08-15T10:20:53Z</time></trkpt><trkpt lat="59.3197901454" lon="34.6580496244"><ele>158.20</ele><time>2026-08-15T10:21:09Z</time></trkpt><trkpt lat="59.3200866971" lon="34.6574867796"><ele>160.56</ele><time>2026-08-15T10:21:28Z</time></trkpt><trkpt lat="59.3202321231" lon="34.6570404433"><ele>158.61</ele><time>2026-08-15T10:21:42Z</time></trkpt><trkpt lat="59.3202464562" lon="34.6570317261"><ele>160.27</ele><time>2026-08-15T10:21:59Z</time></trkpt><trkpt lat="59.3203405011" lon="34.6568300575"><ele>159.83</ele><time>2026-08-15T10:22:13Z</time></trkpt><trkpt lat="59.3204438500" lon="34.6566435602"><ele>159.97</ele><time>2026-08-15T10:22:22Z</time></trkpt><trkpt lat="59.3205716740" lon="34.6561860759"><ele>161.43</ele><time>2026-08-15T10:22:37Z</time></trkpt><trkpt lat="59.3206212111" lon="34.6559974831"><ele>161.48</ele><time>2026-08-15T10:22:44Z</time></trkpt><trkpt lat="59.3206512183" lon="34.6558879316"><ele>161.60</ele><time>2026-08-15T10:22:48Z</time></trkpt><trkpt lat="59.3206675630" lon="34.6558335330"><ele>161.49</ele><time>2026-08-15T10:22:50Z</time></trkpt><trkpt lat="59.3207006715" lon="34.6556608658"><ele>161.12</ele><time>2026-08-15T10:22:56Z</time></trkpt><trkpt lat="59.3207724206" lon="34.6553452034"><ele>160.40</ele><time>2026-08-15T10:23:07Z</time></trkpt><trkpt lat="59.3207768630" lon="34.6551532578"><ele>160.30</ele><time>2026-08-15T10:23:14Z</time></trkpt><trkpt lat="59.3208428286" lon="34.6547705401"><ele>160.03</ele><time>2026-08-15T10:23:28Z</time></trkpt><trkpt lat="59.3208867498" lon="34.6545961965"><ele>159.30</ele><time>2026-08-15T10:23:35Z</time></trkpt><trkpt lat="59.3210018333" lon="34.6542371996"><ele>158.13</ele><time>2026-08-15T10:23:48Z</time></trkpt><trkpt lat="59.3210564833" lon="34.6540957969"><ele>157.68</ele><time>2026-08-15T10:23:53Z</time></trkpt><trkpt lat="59.3211101275" lon="34.6538595110"><ele>157.11</ele><time>2026-08-15T10:24:09Z</time></trkpt><trkpt lat="59.3211356085" lon="34.6535917092"><ele>158.36</ele><time>2026-08-15T10:24:29Z</time></trkpt><trkpt lat="59.3212335929" lon="34.6533489693"><ele>159.01</ele><time>2026-08-15T10:24:41Z</time></trkpt><trkpt lat="59.3214186653" lon="34.6529916488"><ele>158.97</ele><time>2026-08-15T10:24:56Z</time></trkpt><trkpt lat="59.3215278815" lon="34.6528643277"><ele>159.34</ele><time>2026-08-15T10:25:03Z</time></trkpt><trkpt lat="59.3217164744" lon="34.6526370943"><ele>159.11</ele><time>2026-08-15T10:25:17Z</time></trkpt><trkpt lat="59.3218631577" lon="34.6524940990"><ele>158.37</ele><time>2026-08-15T10:25:27Z</time></trkpt><trkpt lat="59.3220375013" lon="34.6522932686"><ele>158.81</ele><time>2026-08-15T10:25:39Z</time></trkpt><trkpt lat="59.3222537544" lon="34.6522887424"><ele>159.90</ele><time>2026-08-15T10:25:53Z</time></trkpt><trkpt lat="59.3224464543" lon="34.6521513630"><ele>163.40</ele><time>2026-08-15T10:26:05Z</time></trkpt><trkpt lat="59.3225861806" lon="34.6520445775"><ele>164.32</ele><time>2026-08-15T10:26:13Z</time></trkpt><trkpt lat="59.3227438442" lon="34.6518321801"><ele>164.41</ele><time>2026-08-15T10:26:27Z</time></trkpt><trkpt lat="59.3229119014" lon="34.6516600996"><ele>167.25</ele><time>2026-08-15T10:26:46Z</time></trkpt><trkpt lat="59.3231289927" lon="34.6515103988"><ele>169.48</ele><time>2026-08-15T10:27:07Z</time></trkpt><trkpt lat="59.3232324254" lon="34.6513765398"><ele>168.60</ele><time>2026-08-15T10:27:21Z</time></trkpt><trkpt lat="59.3234091997" lon="34.6511415951"><ele>167.53</ele><time>2026-08-15T10:27:41Z</time></trkpt><trkpt lat="59.3234573957" lon="34.6510736179"><ele>167.34</ele><time>2026-08-15T10:27:45Z</time></trkpt><trkpt lat="59.3235870637" lon="34.6509162895"><ele>167.41</ele><time>2026-08-15T10:27:55Z</time></trkpt><trkpt lat="59.3237785064" lon="34.6507520042"><ele>167.34</ele><time>2026-08-15T10:28:08Z</time></trkpt><trkpt lat="59.3239042349" lon="34.6506624855"><ele>166.09</ele><time>2026-08-15T10:28:20Z</time></trkpt><trkpt lat="59.3240981922" lon="34.6505515091"><ele>161.64</ele><time>2026-08-15T10:28:43Z</time></trkpt><trkpt lat="59.3242352363" lon="34.6503887326"><ele>162.41</ele><time>2026-08-15T10:29:00Z</time></trkpt><trkpt lat="59.3243953306" lon="34.6500228625"><ele>164.66</ele><time>2026-08-15T10:29:24Z</time></trkpt><trkpt lat="59.3245229032" lon="34.6498301625"><ele>164.54</ele><time>2026-08-15T10:29:33Z</time></trkpt><trkpt lat="59.3246265873" lon="34.6496248059"><ele>164.25</ele><time>2026-08-15T10:29:41Z</time></trkpt><trkpt lat="59.3246869370" lon="34.6495183557"><ele>163.72</ele><time>2026-08-15T10:29:50Z</time></trkpt><trkpt lat="59.3249151763" lon="34.6492138412"><ele>162.69</ele><time>2026-08-15T10:30:12Z</time></trkpt><trkpt lat="59.3250390608" lon="34.6489448659"><ele>163.22</ele><time>2026-08-15T10:30:22Z</time></trkpt><trkpt lat="59.3251799606" lon="34.6487291157"><ele>164.41</ele><time>2026-08-15T10:30:32Z</time></trkpt><trkpt lat="59.3252818007" lon="34.6485858690"><ele>165.11</ele><time>2026-08-15T10:30:39Z</time></trkpt><trkpt lat="59.3253543880" lon="34.6484878846"><ele>164.39</ele><time>2026-08-15T10:30:45Z</time></trkpt><trkpt lat="59.3254502770" lon="34.6482771635"><ele>163.42</ele><time>2026-08-15T10:30:52Z</time></trkpt><trkpt lat="59.3256511074" lon="34.6477430686"><ele>165.07</ele><time>2026-08-15T10:31:10Z</time></trkpt><trkpt lat="59.3257430568" lon="34.6474714112"><ele>165.84</ele><time>2026-08-15T10:31:23Z</time></trkpt><trkpt lat="59.3258201703" lon="34.6472259890"><ele>166.23</ele><time>2026-08-15T10:31:38Z</time></trkpt><trkpt lat="59.3258319888" lon="34.6471552458"><ele>166.11</ele><time>2026-08-15T10:31:42Z</time></trkpt><trkpt lat="59.3258617446" lon="34.6470569260"><ele>165.72</ele><time>2026-08-15T10:31:46Z</time></trkpt><trkpt lat="59.3259726372" lon="34.6466406807"><ele>164.97</ele><time>2026-08-15T10:32:00Z</time></trkpt><trkpt lat="59.3260727171" lon="34.6464062389"><ele>165.14</ele><time>2026-08-15T10:32:13Z</time></trkpt><trkpt lat="59.3261227570" lon="34.6461899020"><ele>164.83</ele><time>2026-08-15T10:32:26Z</time></trkpt><trkpt lat="59.3261536025" lon="34.6460668556"><ele>165.01</ele><time>2026-08-15T10:32:30Z</time></trkpt><trkpt lat="59.3262179755" lon="34.6458169911"><ele>166.20</ele><time>2026-08-15T10:32:38Z</time></trkpt><trkpt lat="59.3262445461" lon="34.6457433980"><ele>166.42</ele><time>2026-08-15T10:32:41Z</time></trkpt><trkpt lat="59.3263497390" lon="34.6454012487"><ele>167.54</ele><time>2026-08-15T10:32:53Z</time></trkpt><trkpt lat="59.3263596296" lon="34.6453761030"><ele>167.56</ele><time>2026-08-15T10:32:54Z</time></trkpt><trkpt lat="59.3264706898" lon="34.6450015157"><ele>168.35</ele><time>2026-08-15T10:33:08Z</time></trkpt><trkpt lat="59.3266062252" lon="34.6446643118"><ele>170.72</ele><time>2026-08-15T10:33:21Z</time></trkpt><trkpt lat="59.3266994320" lon="34.6443150379"><ele>173.05</ele><time>2026-08-15T10:33:33Z</time></trkpt><trkpt lat="59.3267596979" lon="34.6442489047"><ele>174.69</ele><time>2026-08-15T10:33:45Z</time></trkpt><trkpt lat="59.3267265894" lon="34.6442094259"><ele>173.89</ele><time>2026-08-15T10:34:07Z</time></trkpt><trkpt lat="59.3267227337" lon="34.6442063246"><ele>173.90</ele><time>2026-08-15T10:34:09Z</time></trkpt><trkpt lat="59.3267282657" lon="34.6442428697"><ele>175.88</ele><time>2026-08-15T10:34:39Z</time></trkpt><trkpt lat="59.3267392460" lon="34.6442407742"><ele>177.02</ele><time>2026-08-15T10:35:09Z</time></trkpt><trkpt lat="59.3266849313" lon="34.6442880481"><ele>177.37</ele><time>2026-08-15T10:35:30Z</time></trkpt><trkpt lat="59.3267096579" lon="34.6443053987"><ele>178.40</ele><time>2026-08-15T10:35:56Z</time></trkpt><trkpt lat="59.3267254159" lon="34.6442857012"><ele>179.63</ele><time>2026-08-15T10:36:27Z</time></trkpt><trkpt lat="59.3267403357" lon="34.6442880481"><ele>178.31</ele><time>2026-08-15T10:37:19Z</time></trkpt><trkpt lat="59.3267049640" lon="34.6442214958"><ele>179.47</ele><time>2026-08-15T10:37:53Z</time></trkpt><trkpt lat="59.3267244939" lon="34.6442288719"><ele>179.68</ele><time>2026-08-15T10:38:30Z</time></trkpt><trkpt lat="59.3268081453" lon="34.6441200748"><ele>196.99</ele><time>2026-08-15T10:41:42Z</time></trkpt><trkpt lat="59.3267840892" lon="34.6442575380"><ele>190.54</ele><time>2026-08-15T10:42:06Z</time></trkpt><trkpt lat="59.3267088197" lon="34.6442090906"><ele>187.56</ele><time>2026-08-15T10:42:29Z</time></trkpt><trkpt lat="59.3266763818" lon="34.6442334820"><ele>185.39</ele><time>2026-08-15T10:42:51Z</time></trkpt><trkpt lat="59.3267122563" lon="34.6442235075"><ele>186.75</ele><time>2026-08-15T10:43:21Z</time></trkpt><trkpt lat="59.3267310318" lon="34.6442217473"><ele>186.49</ele><time>2026-08-15T10:43:49Z</time></trkpt><trkpt lat="59.3267410900" lon="34.6441841125"><ele>187.28</ele><time>2026-08-15T10:44:10Z</time></trkpt><trkpt lat="59.3267417606" lon="34.6442122757"><ele>186.73</ele><time>2026-08-15T10:44:41Z</time></trkpt><trkpt lat="59.3267151061" lon="34.6442094259"><ele>186.81</ele><time>2026-08-15T10:45:09Z</time></trkpt><trkpt lat="59.3267156929" lon="34.6442187298"><ele>186.57</ele><time>2026-08-15T10:45:39Z</time></trkpt><trkpt lat="59.3267653137" lon="34.6442640759"><ele>185.40</ele><time>2026-08-15T10:45:59Z</time></trkpt><trkpt lat="59.3267917167" lon="34.6442394331"><ele>179.37</ele><time>2026-08-15T10:46:29Z</time></trkpt><trkpt lat="59.3268058822" lon="34.6442328952"><ele>178.98</ele><time>2026-08-15T10:46:58Z</time></trkpt><trkpt lat="59.3270788807" lon="34.6442672610"><ele>177.13</ele><time>2026-08-15T10:47:22Z</time></trkpt><trkpt lat="59.3272445910" lon="34.6442936640"><ele>174.28</ele><time>2026-08-15T10:47:44Z</time></trkpt><trkpt lat="59.3272685632" lon="34.6442953404"><ele>174.51</ele><time>2026-08-15T10:47:51Z</time></trkpt><trkpt lat="59.3273989018" lon="34.6442626510"><ele>174.23</ele><time>2026-08-15T10:48:08Z</time></trkpt><trkpt lat="59.3275992293" lon="34.6442825999"><ele>171.78</ele><time>2026-08-15T10:48:28Z</time></trkpt><trkpt lat="59.3277276400" lon="34.6443088353"><ele>172.17</ele><time>2026-08-15T10:48:45Z</time></trkpt><trkpt lat="59.3277928513" lon="34.6443522535"><ele>172.96</ele><time>2026-08-15T10:49:08Z</time></trkpt><trkpt lat="59.3278637622" lon="34.6444002818"><ele>172.40</ele><time>2026-08-15T10:49:37Z</time></trkpt><trkpt lat="59.3279084377" lon="34.6443599649"><ele>173.90</ele><time>2026-08-15T10:50:01Z</time></trkpt><trkpt lat="59.3278656900" lon="34.6444179676"><ele>173.19</ele><time>2026-08-15T10:50:28Z</time></trkpt><trkpt lat="59.3278888240" lon="34.6444222424"><ele>173.95</ele><time>2026-08-15T10:50:53Z</time></trkpt><trkpt lat="59.3279849645" lon="34.6445063129"><ele>173.75</ele><time>2026-08-15T10:51:13Z</time></trkpt><trkpt lat="59.3280790094" lon="34.6446738672"><ele>174.38</ele><time>2026-08-15T10:51:29Z</time></trkpt><trkpt lat="59.3282195739" lon="34.6448194608"><ele>170.99</ele><time>2026-08-15T10:51:46Z</time></trkpt><trkpt lat="59.3283294607" lon="34.6448902041"><ele>167.33</ele><time>2026-08-15T10:52:01Z</time></trkpt><trkpt lat="59.3283760641" lon="34.6449021064"><ele>169.42</ele><time>2026-08-15T10:52:24Z</time></trkpt><trkpt lat="59.3283506669" lon="34.6449648030"><ele>172.12</ele><time>2026-08-15T10:53:01Z</time></trkpt><trkpt lat="59.3283552770" lon="34.6449933015"><ele>174.15</ele><time>2026-08-15T10:53:23Z</time></trkpt><trkpt lat="59.3284107652" lon="34.6451668069"><ele>174.50</ele><time>2026-08-15T10:53:40Z</time></trkpt><trkpt lat="59.3284727074" lon="34.6454070322"><ele>173.48</ele><time>2026-08-15T10:53:58Z</time></trkpt><trkpt lat="59.3285312131" lon="34.6456867363"><ele>172.16</ele><time>2026-08-15T10:54:15Z</time></trkpt><trkpt lat="59.3285759725" lon="34.6458195057"><ele>171.73</ele><time>2026-08-15T10:54:33Z</time></trkpt><trkpt lat="59.3286669161" lon="34.6459649317"><ele>171.50</ele><time>2026-08-15T10:54:52Z</time></trkpt><trkpt lat="59.3287042156" lon="34.6461056639"><ele>172.43</ele><time>2026-08-15T10:55:09Z</time></trkpt><trkpt lat="59.3287239131" lon="34.6460241918"><ele>174.59</ele><time>2026-08-15T10:55:36Z</time></trkpt><trkpt lat="59.3287659064" lon="34.6459673624"><ele>174.17</ele><time>2026-08-15T10:56:05Z</time></trkpt><trkpt lat="59.3287793174" lon="34.6460008901"><ele>174.25</ele><time>2026-08-15T10:56:31Z</time></trkpt><trkpt lat="59.3287851010" lon="34.6459971182"><ele>174.27</ele><time>2026-08-15T10:56:32Z</time></trkpt><trkpt lat="59.3287944049" lon="34.6459234413"><ele>174.35</ele><time>2026-08-15T10:56:54Z</time></trkpt><trkpt lat="59.3289130088" lon="34.6457739919"><ele>174.60</ele><time>2026-08-15T10:57:12Z</time></trkpt><trkpt lat="59.3290433474" lon="34.6456258837"><ele>174.87</ele><time>2026-08-15T10:57:29Z</time></trkpt><trkpt lat="59.3291037809" lon="34.6454448346"><ele>175.29</ele><time>2026-08-15T10:57:47Z</time></trkpt><trkpt lat="59.3291484565" lon="34.6452512965"><ele>175.01</ele><time>2026-08-15T10:58:08Z</time></trkpt><trkpt lat="59.3292052858" lon="34.6450197045"><ele>175.14</ele><time>2026-08-15T10:58:28Z</time></trkpt><trkpt lat="59.3292717542" lon="34.6447939798"><ele>174.72</ele><time>2026-08-15T10:58:47Z</time></trkpt><trkpt lat="59.3293490354" lon="34.6446615458"><ele>173.86</ele><time>2026-08-15T10:59:06Z</time></trkpt><trkpt lat="59.3294041045" lon="34.6445151139"><ele>172.78</ele><time>2026-08-15T10:59:24Z</time></trkpt><trkpt lat="59.3294927012" lon="34.6443245932"><ele>172.12</ele><time>2026-08-15T10:59:41Z</time></trkpt><trkpt lat="59.3295037653" lon="34.6442456357"><ele>172.46</ele><time>2026-08-15T11:00:02Z</time></trkpt><trkpt lat="59.3295265641" lon="34.6441509202"><ele>172.72</ele><time>2026-08-15T11:00:34Z</time></trkpt><trkpt lat="59.3297957070" lon="34.6433486044"><ele>155.35</ele><time>2026-08-15T11:05:13Z</time></trkpt><trkpt lat="59.3299769238" lon="34.6430177707"><ele>192.41</ele><time>2026-08-15T11:05:35Z</time></trkpt><trkpt lat="59.3299508560" lon="34.6429298446"><ele>184.50</ele><time>2026-08-15T11:05:52Z</time></trkpt><trkpt lat="59.3299734872" lon="34.6428604424"><ele>179.73</ele><time>2026-08-15T11:06:12Z</time></trkpt><trkpt lat="59.3300458230" lon="34.6427544951"><ele>178.48</ele><time>2026-08-15T11:06:31Z</time></trkpt><trkpt lat="59.3301405385" lon="34.6427617036"><ele>178.31</ele><time>2026-08-15T11:06:51Z</time></trkpt><trkpt lat="59.3302827794" lon="34.6428404935"><ele>177.41</ele><time>2026-08-15T11:07:11Z</time></trkpt><trkpt lat="59.3303776626" lon="34.6428066306"><ele>175.96</ele><time>2026-08-15T11:07:26Z</time></trkpt><trkpt lat="59.3304795027" lon="34.6426426806"><ele>174.65</ele><time>2026-08-15T11:07:44Z</time></trkpt><trkpt lat="59.3305129465" lon="34.6424357314"><ele>173.63</ele><time>2026-08-15T11:08:01Z</time></trkpt><trkpt lat="59.3305233400" lon="34.6422027145"><ele>171.62</ele><time>2026-08-15T11:08:21Z</time></trkpt><trkpt lat="59.3305592984" lon="34.6421388444"><ele>170.26</ele><time>2026-08-15T11:08:37Z</time></trkpt><trkpt lat="59.3305378407" lon="34.6421805024"><ele>169.17</ele><time>2026-08-15T11:09:06Z</time></trkpt><trkpt lat="59.3306076620" lon="34.6420448832"><ele>169.01</ele><time>2026-08-15T11:09:30Z</time></trkpt><trkpt lat="59.3307530042" lon="34.6420901455"><ele>168.86</ele><time>2026-08-15T11:09:51Z</time></trkpt><trkpt lat="59.3308666628" lon="34.6420719568"><ele>168.71</ele><time>2026-08-15T11:10:12Z</time></trkpt><trkpt lat="59.3309555948" lon="34.6421224158"><ele>169.69</ele><time>2026-08-15T11:10:30Z</time></trkpt><trkpt lat="59.3310177885" lon="34.6420538519"><ele>170.42</ele><time>2026-08-15T11:10:48Z</time></trkpt><trkpt lat="59.3310198002" lon="34.6420498285"><ele>172.34</ele><time>2026-08-15T11:11:10Z</time></trkpt><trkpt lat="59.3310196325" lon="34.6420684364"><ele>171.62</ele><time>2026-08-15T11:11:36Z</time></trkpt><trkpt lat="59.3310382403" lon="34.6420721244"><ele>171.69</ele><time>2026-08-15T11:11:40Z</time></trkpt><trkpt lat="59.3310679961" lon="34.6420320589"><ele>171.88</ele><time>2026-08-15T11:12:05Z</time></trkpt><trkpt lat="59.3310746178" lon="34.6420209948"><ele>172.88</ele><time>2026-08-15T11:12:31Z</time></trkpt><trkpt lat="59.3311482947" lon="34.6420386806"><ele>174.67</ele><time>2026-08-15T11:12:57Z</time></trkpt><trkpt lat="59.3312548287" lon="34.6420131996"><ele>172.78</ele><time>2026-08-15T11:13:18Z</time></trkpt><trkpt lat="59.3313254043" lon="34.6419972740"><ele>173.38</ele><time>2026-08-15T11:13:40Z</time></trkpt><trkpt lat="59.3314106483" lon="34.6419838630"><ele>172.93</ele><time>2026-08-15T11:14:01Z</time></trkpt><trkpt lat="59.3314654659" lon="34.6419939213"><ele>173.16</ele><time>2026-08-15T11:14:20Z</time></trkpt><trkpt lat="59.3315231334" lon="34.6419805940"><ele>171.98</ele><time>2026-08-15T11:14:40Z</time></trkpt><trkpt lat="59.3315800466" lon="34.6419339068"><ele>171.31</ele><time>2026-08-15T11:14:48Z</time></trkpt><trkpt lat="59.3316786177" lon="34.6418862138"><ele>168.80</ele><time>2026-08-15T11:15:04Z</time></trkpt><trkpt lat="59.3316809647" lon="34.6419632435"><ele>168.00</ele><time>2026-08-15T11:15:22Z</time></trkpt><trkpt lat="59.3316989020" lon="34.6419925801"><ele>170.91</ele><time>2026-08-15T11:15:57Z</time></trkpt><trkpt lat="59.3316662963" lon="34.6420590486"><ele>170.14</ele><time>2026-08-15T11:16:16Z</time></trkpt><trkpt lat="59.3316502031" lon="34.6420039795"><ele>170.96</ele><time>2026-08-15T11:16:44Z</time></trkpt><trkpt lat="59.3316649552" lon="34.6419021394"><ele>171.36</ele><time>2026-08-15T11:17:08Z</time></trkpt><trkpt lat="59.3316082936" lon="34.6419951785"><ele>172.07</ele><time>2026-08-15T11:17:35Z</time></trkpt><trkpt lat="59.3316268176" lon="34.6423425246"><ele>171.54</ele><time>2026-08-15T11:18:00Z</time></trkpt><trkpt lat="59.3315909430" lon="34.6425609570"><ele>170.00</ele><time>2026-08-15T11:18:19Z</time></trkpt><trkpt lat="59.3315799627" lon="34.6427013539"><ele>170.49</ele><time>2026-08-15T11:18:36Z</time></trkpt><trkpt lat="59.3315360416" lon="34.6427643858"><ele>171.72</ele><time>2026-08-15T11:18:57Z</time></trkpt><trkpt lat="59.3315388076" lon="34.6429303475"><ele>171.90</ele><time>2026-08-15T11:19:14Z</time></trkpt><trkpt lat="59.3315588403" lon="34.6431003325"><ele>171.91</ele><time>2026-08-15T11:19:33Z</time></trkpt><trkpt lat="59.3315593433" lon="34.6430988237"><ele>171.80</ele><time>2026-08-15T11:20:03Z</time></trkpt><trkpt lat="59.3315595109" lon="34.6430967283"><ele>171.95</ele><time>2026-08-15T11:20:06Z</time></trkpt><trkpt lat="59.3314878456" lon="34.6432086267"><ele>171.93</ele><time>2026-08-15T11:20:36Z</time></trkpt><trkpt lat="59.3314775359" lon="34.6432237141"><ele>171.85</ele><time>2026-08-15T11:20:40Z</time></trkpt><trkpt lat="59.3314004224" lon="34.6433381271"><ele>171.27</ele><time>2026-08-15T11:20:58Z</time></trkpt><trkpt lat="59.3313283380" lon="34.6434831340"><ele>170.95</ele><time>2026-08-15T11:21:19Z</time></trkpt><trkpt lat="59.3313088920" lon="34.6434817091"><ele>170.28</ele><time>2026-08-15T11:21:47Z</time></trkpt><trkpt lat="59.3312965706" lon="34.6437445655"><ele>170.29</ele><time>2026-08-15T11:22:08Z</time></trkpt><trkpt lat="59.3312523980" lon="34.6439475752"><ele>169.73</ele><time>2026-08-15T11:22:30Z</time></trkpt><trkpt lat="59.3311596941" lon="34.6442810073"><ele>167.34</ele><time>2026-08-15T11:22:56Z</time></trkpt><trkpt lat="59.3310736120" lon="34.6444825921"><ele>167.12</ele><time>2026-08-15T11:23:13Z</time></trkpt><trkpt lat="59.3310161121" lon="34.6445079893"><ele>171.69</ele><time>2026-08-15T11:23:42Z</time></trkpt><trkpt lat="59.3310070597" lon="34.6445051394"><ele>172.85</ele><time>2026-08-15T11:24:19Z</time></trkpt><trkpt lat="59.3310128432" lon="34.6445057262"><ele>172.35</ele><time>2026-08-15T11:24:49Z</time></trkpt><trkpt lat="59.3309649825" lon="34.6446156967"><ele>171.07</ele><time>2026-08-15T11:25:23Z</time></trkpt><trkpt lat="59.3310130946" lon="34.6446029563"><ele>171.82</ele><time>2026-08-15T11:25:56Z</time></trkpt><trkpt lat="59.3309711013" lon="34.6446268447"><ele>176.00</ele><time>2026-08-15T11:26:25Z</time></trkpt><trkpt lat="59.3309540860" lon="34.6447254997"><ele>175.31</ele><time>2026-08-15T11:26:50Z</time></trkpt><trkpt lat="59.3307998590" lon="34.6448081452"><ele>174.00</ele><time>2026-08-15T11:27:13Z</time></trkpt><trkpt lat="59.3307177164" lon="34.6449905355"><ele>172.71</ele><time>2026-08-15T11:27:36Z</time></trkpt><trkpt lat="59.3306171335" lon="34.6452200320"><ele>171.14</ele><time>2026-08-15T11:27:57Z</time></trkpt><trkpt lat="59.3304935843" lon="34.6453422401"><ele>171.30</ele><time>2026-08-15T11:28:16Z</time></trkpt><trkpt lat="59.3301232718" lon="34.6457896661"><ele>170.57</ele><time>2026-08-15T11:29:20Z</time></trkpt><trkpt lat="59.3299769238" lon="34.6458571404"><ele>171.29</ele><time>2026-08-15T11:29:40Z</time></trkpt><trkpt lat="59.3299655244" lon="34.6458354313"><ele>171.86</ele><time>2026-08-15T11:29:52Z</time></trkpt><trkpt lat="59.3297739141" lon="34.6458910871"><ele>172.74</ele><time>2026-08-15T11:30:16Z</time></trkpt><trkpt lat="59.3297109660" lon="34.6459245309"><ele>171.33</ele><time>2026-08-15T11:30:43Z</time></trkpt><trkpt lat="59.3296812940" lon="34.6460826136"><ele>170.70</ele><time>2026-08-15T11:31:05Z</time></trkpt><trkpt lat="59.3296592496" lon="34.6462826058"><ele>171.60</ele><time>2026-08-15T11:31:21Z</time></trkpt><trkpt lat="59.3296268117" lon="34.6463460568"><ele>172.16</ele><time>2026-08-15T11:31:53Z</time></trkpt><trkpt lat="59.3296560645" lon="34.6463359986"><ele>172.12</ele><time>2026-08-15T11:32:24Z</time></trkpt><trkpt lat="59.3295878358" lon="34.6463579591"><ele>173.30</ele><time>2026-08-15T11:32:42Z</time></trkpt><trkpt lat="59.3295599241" lon="34.6464879625"><ele>173.68</ele><time>2026-08-15T11:33:00Z</time></trkpt><trkpt lat="59.3294856604" lon="34.6466200612"><ele>173.72</ele><time>2026-08-15T11:33:15Z</time></trkpt><trkpt lat="59.3294050265" lon="34.6467867773"><ele>172.74</ele><time>2026-08-15T11:33:41Z</time></trkpt><trkpt lat="59.3293453474" lon="34.6469341312"><ele>171.46</ele><time>2026-08-15T11:33:57Z</time></trkpt><trkpt lat="59.3292329460" lon="34.6471539047"><ele>170.36</ele><time>2026-08-15T11:34:21Z</time></trkpt><trkpt lat="59.3291494623" lon="34.6471829060"><ele>169.60</ele><time>2026-08-15T11:34:38Z</time></trkpt><trkpt lat="59.3290819041" lon="34.6473764442"><ele>168.36</ele><time>2026-08-15T11:35:02Z</time></trkpt><trkpt lat="59.3290106580" lon="34.6475536376"><ele>165.07</ele><time>2026-08-15T11:35:25Z</time></trkpt><trkpt lat="59.3289783876" lon="34.6477595810"><ele>164.75</ele><time>2026-08-15T11:35:44Z</time></trkpt><trkpt lat="59.3289789744" lon="34.6477838885"><ele>164.75</ele><time>2026-08-15T11:35:46Z</time></trkpt><trkpt lat="59.3288669921" lon="34.6480218507"><ele>166.91</ele><time>2026-08-15T11:36:08Z</time></trkpt><trkpt lat="59.3288549222" lon="34.6480992995"><ele>168.57</ele><time>2026-08-15T11:36:17Z</time></trkpt><trkpt lat="59.3287964165" lon="34.6483257785"><ele>169.81</ele><time>2026-08-15T11:36:41Z</time></trkpt><trkpt lat="59.3287322950" lon="34.6486339811"><ele>170.41</ele><time>2026-08-15T11:36:59Z</time></trkpt><trkpt lat="59.3286699336" lon="34.6488782298"><ele>170.61</ele><time>2026-08-15T11:37:20Z</time></trkpt><trkpt lat="59.3285880424" lon="34.6491544973"><ele>170.46</ele><time>2026-08-15T11:37:41Z</time></trkpt><trkpt lat="59.3285100069" lon="34.6493521426"><ele>170.54</ele><time>2026-08-15T11:38:02Z</time></trkpt><trkpt lat="59.3284470588" lon="34.6495022625"><ele>170.53</ele><time>2026-08-15T11:38:20Z</time></trkpt><trkpt lat="59.3283242639" lon="34.6496619377"><ele>169.97</ele><time>2026-08-15T11:38:43Z</time></trkpt><trkpt lat="59.3282074202" lon="34.6498001553"><ele>168.71</ele><time>2026-08-15T11:39:03Z</time></trkpt><trkpt lat="59.3282070849" lon="34.6498875786"><ele>170.08</ele><time>2026-08-15T11:39:24Z</time></trkpt><trkpt lat="59.3282184005" lon="34.6499418933"><ele>169.66</ele><time>2026-08-15T11:39:55Z</time></trkpt><trkpt lat="59.3282568734" lon="34.6499251295"><ele>169.53</ele><time>2026-08-15T11:40:23Z</time></trkpt><trkpt lat="59.3283767346" lon="34.6499256324"><ele>169.45</ele><time>2026-08-15T11:40:56Z</time></trkpt><trkpt lat="59.3283699453" lon="34.6500620898"><ele>170.62</ele><time>2026-08-15T11:41:24Z</time></trkpt><trkpt lat="59.3284697738" lon="34.6500888281"><ele>168.51</ele><time>2026-08-15T11:41:46Z</time></trkpt><trkpt lat="59.3285155389" lon="34.6502081864"><ele>167.88</ele><time>2026-08-15T11:42:07Z</time></trkpt><trkpt lat="59.3286044709" lon="34.6502251178"><ele>165.09</ele><time>2026-08-15T11:42:23Z</time></trkpt><trkpt lat="59.3286609650" lon="34.6501764189"><ele>163.86</ele><time>2026-08-15T11:42:50Z</time></trkpt><trkpt lat="59.3288082350" lon="34.6501309052"><ele>163.86</ele><time>2026-08-15T11:43:09Z</time></trkpt><trkpt lat="59.3289415073" lon="34.6501091123"><ele>163.22</ele><time>2026-08-15T11:43:26Z</time></trkpt><trkpt lat="59.3290217221" lon="34.6501017362"><ele>161.62</ele><time>2026-08-15T11:43:39Z</time></trkpt><trkpt lat="59.3290979136" lon="34.6501436457"><ele>160.11</ele><time>2026-08-15T11:43:56Z</time></trkpt><trkpt lat="59.3291156832" lon="34.6500629280"><ele>161.27</ele><time>2026-08-15T11:44:08Z</time></trkpt><trkpt lat="59.3291433435" lon="34.6499995608"><ele>162.87</ele><time>2026-08-15T11:44:28Z</time></trkpt><trkpt lat="59.3291905336" lon="34.6499179211"><ele>163.29</ele><time>2026-08-15T11:44:57Z</time></trkpt><trkpt lat="59.3292369694" lon="34.6497936174"><ele>162.28</ele><time>2026-08-15T11:45:17Z</time></trkpt><trkpt lat="59.3293243926" lon="34.6496414021"><ele>161.58</ele><time>2026-08-15T11:45:38Z</time></trkpt><trkpt lat="59.3293824792" lon="34.6494755242"><ele>160.84</ele><time>2026-08-15T11:46:01Z</time></trkpt><trkpt lat="59.3294248916" lon="34.6493145078"><ele>160.93</ele><time>2026-08-15T11:46:15Z</time></trkpt><trkpt lat="59.3295423221" lon="34.6491851751"><ele>161.45</ele><time>2026-08-15T11:46:40Z</time></trkpt><trkpt lat="59.3296226207" lon="34.6490607038"><ele>164.09</ele><time>2026-08-15T11:47:09Z</time></trkpt><trkpt lat="59.3297315855" lon="34.6489246655"><ele>163.81</ele><time>2026-08-15T11:47:31Z</time></trkpt><trkpt lat="59.3298559729" lon="34.6487738751"><ele>163.93</ele><time>2026-08-15T11:47:48Z</time></trkpt><trkpt lat="59.3298873212" lon="34.6487445384"><ele>164.65</ele><time>2026-08-15T11:48:08Z</time></trkpt><trkpt lat="59.3298672885" lon="34.6488369908"><ele>164.79</ele><time>2026-08-15T11:48:43Z</time></trkpt><trkpt lat="59.3298214395" lon="34.6488608792"><ele>164.99</ele><time>2026-08-15T11:49:13Z</time></trkpt><trkpt lat="59.3299604952" lon="34.6486439556"><ele>163.73</ele><time>2026-08-15T11:49:36Z</time></trkpt><trkpt lat="59.3300541211" lon="34.6484199911"><ele>162.80</ele><time>2026-08-15T11:49:57Z</time></trkpt><trkpt lat="59.3301255349" lon="34.6481231879"><ele>161.05</ele><time>2026-08-15T11:50:18Z</time></trkpt><trkpt lat="59.3302338291" lon="34.6479512751"><ele>160.79</ele><time>2026-08-15T11:50:41Z</time></trkpt><trkpt lat="59.3303563725" lon="34.6477678791"><ele>161.16</ele><time>2026-08-15T11:51:06Z</time></trkpt><trkpt lat="59.3304686900" lon="34.6475965530"><ele>161.40</ele><time>2026-08-15T11:51:29Z</time></trkpt><trkpt lat="59.3305446301" lon="34.6474032663"><ele>160.95</ele><time>2026-08-15T11:51:45Z</time></trkpt><trkpt lat="59.3305923231" lon="34.6473015100"><ele>161.58</ele><time>2026-08-15T11:52:04Z</time></trkpt><trkpt lat="59.3306841049" lon="34.6471336205"><ele>161.52</ele><time>2026-08-15T11:52:23Z</time></trkpt><trkpt lat="59.3307691813" lon="34.6469090693"><ele>159.55</ele><time>2026-08-15T11:52:45Z</time></trkpt><trkpt lat="59.3307839334" lon="34.6468539163"><ele>158.96</ele><time>2026-08-15T11:52:50Z</time></trkpt><trkpt lat="59.3308864441" lon="34.6466264315"><ele>156.86</ele><time>2026-08-15T11:53:11Z</time></trkpt><trkpt lat="59.3310112506" lon="34.6464123577"><ele>157.25</ele><time>2026-08-15T11:53:35Z</time></trkpt><trkpt lat="59.3311196286" lon="34.6462536883"><ele>156.62</ele><time>2026-08-15T11:53:57Z</time></trkpt><trkpt lat="59.3312615342" lon="34.6460351720"><ele>155.19</ele><time>2026-08-15T11:54:17Z</time></trkpt><trkpt lat="59.3313389830" lon="34.6460305620"><ele>157.00</ele><time>2026-08-15T11:54:42Z</time></trkpt><trkpt lat="59.3314132467" lon="34.6459848806"><ele>156.25</ele><time>2026-08-15T11:55:05Z</time></trkpt><trkpt lat="59.3315012567" lon="34.6458833758"><ele>155.53</ele><time>2026-08-15T11:55:24Z</time></trkpt><trkpt lat="59.3315532245" lon="34.6458289772"><ele>155.71</ele><time>2026-08-15T11:55:53Z</time></trkpt><trkpt lat="59.3315756042" lon="34.6458216850"><ele>155.61</ele><time>2026-08-15T11:55:58Z</time></trkpt><trkpt lat="59.3316040188" lon="34.6458353475"><ele>155.43</ele><time>2026-08-15T11:56:02Z</time></trkpt><trkpt lat="59.3316520471" lon="34.6460073441"><ele>156.51</ele><time>2026-08-15T11:56:27Z</time></trkpt><trkpt lat="59.3317065295" lon="34.6461210027"><ele>159.92</ele><time>2026-08-15T11:56:52Z</time></trkpt><trkpt lat="59.3317858223" lon="34.6460894868"><ele>161.59</ele><time>2026-08-15T11:57:23Z</time></trkpt><trkpt lat="59.3318345211" lon="34.6459589805"><ele>161.74</ele><time>2026-08-15T11:57:46Z</time></trkpt><trkpt lat="59.3318838067" lon="34.6458118781"><ele>161.82</ele><time>2026-08-15T11:58:09Z</time></trkpt><trkpt lat="59.3318951223" lon="34.6456079464"><ele>163.71</ele><time>2026-08-15T11:58:36Z</time></trkpt><trkpt lat="59.3319072761" lon="34.6455407236"><ele>163.87</ele><time>2026-08-15T11:59:09Z</time></trkpt><trkpt lat="59.3318359461" lon="34.6455957927"><ele>169.29</ele><time>2026-08-15T11:59:39Z</time></trkpt><trkpt lat="59.3318805378" lon="34.6455341857"><ele>169.69</ele><time>2026-08-15T11:59:59Z</time></trkpt><trkpt lat="59.3319755886" lon="34.6452569123"><ele>171.30</ele><time>2026-08-15T12:00:21Z</time></trkpt><trkpt lat="59.3320170790" lon="34.6450310200"><ele>172.87</ele><time>2026-08-15T12:00:40Z</time></trkpt><trkpt lat="59.3320642691" lon="34.6448586881"><ele>173.89</ele><time>2026-08-15T12:00:57Z</time></trkpt><trkpt lat="59.3321142253" lon="34.6447088197"><ele>173.34</ele><time>2026-08-15T12:01:17Z</time></trkpt><trkpt lat="59.3321317434" lon="34.6443799976"><ele>173.10</ele><time>2026-08-15T12:01:38Z</time></trkpt><trkpt lat="59.3321984634" lon="34.6441419516"><ele>172.96</ele><time>2026-08-15T12:01:57Z</time></trkpt><trkpt lat="59.3322325777" lon="34.6439717151"><ele>172.62</ele><time>2026-08-15T12:02:16Z</time></trkpt><trkpt lat="59.3322782591" lon="34.6438825317"><ele>172.98</ele><time>2026-08-15T12:02:41Z</time></trkpt><trkpt lat="59.3322873116" lon="34.6438516863"><ele>173.11</ele><time>2026-08-15T12:02:49Z</time></trkpt><trkpt lat="59.3322730623" lon="34.6437486727"><ele>173.34</ele><time>2026-08-15T12:03:20Z</time></trkpt><trkpt lat="59.3322786782" lon="34.6437285561"><ele>173.73</ele><time>2026-08-15T12:03:51Z</time></trkpt><trkpt lat="59.3322833721" lon="34.6437516902"><ele>175.00</ele><time>2026-08-15T12:04:20Z</time></trkpt><trkpt lat="59.3323153071" lon="34.6436818689"><ele>175.44</ele><time>2026-08-15T12:04:47Z</time></trkpt><trkpt lat="59.3323004711" lon="34.6435944457"><ele>173.71</ele><time>2026-08-15T12:05:03Z</time></trkpt><trkpt lat="59.3323371839" lon="34.6434169170"><ele>172.48</ele><time>2026-08-15T12:05:25Z</time></trkpt><trkpt lat="59.3323620781" lon="34.6433682181"><ele>172.47</ele><time>2026-08-15T12:05:29Z</time></trkpt><trkpt lat="59.3324253615" lon="34.6431393921"><ele>171.73</ele><time>2026-08-15T12:05:54Z</time></trkpt><trkpt lat="59.3324494176" lon="34.6429206245"><ele>170.59</ele><time>2026-08-15T12:06:12Z</time></trkpt><trkpt lat="59.3324553687" lon="34.6428551618"><ele>170.27</ele><time>2026-08-15T12:06:32Z</time></trkpt><trkpt lat="59.3324469868" lon="34.6424935665"><ele>169.08</ele><time>2026-08-15T12:06:53Z</time></trkpt><trkpt lat="59.3324435502" lon="34.6422366612"><ele>170.54</ele><time>2026-08-15T12:07:10Z</time></trkpt><trkpt lat="59.3323540315" lon="34.6420491580"><ele>170.01</ele><time>2026-08-15T12:07:28Z</time></trkpt><trkpt lat="59.3323495891" lon="34.6418971103"><ele>170.48</ele><time>2026-08-15T12:07:53Z</time></trkpt><trkpt lat="59.3323896546" lon="34.6418603975"><ele>169.94</ele><time>2026-08-15T12:08:20Z</time></trkpt><trkpt lat="59.3323955219" lon="34.6418235172"><ele>168.64</ele><time>2026-08-15T12:08:42Z</time></trkpt><trkpt lat="59.3324280437" lon="34.6417917497"><ele>168.66</ele><time>2026-08-15T12:09:06Z</time></trkpt><trkpt lat="59.3325422890" lon="34.6417908277"><ele>167.85</ele><time>2026-08-15T12:09:25Z</time></trkpt><trkpt lat="59.3326130323" lon="34.6420196537"><ele>164.69</ele><time>2026-08-15T12:09:48Z</time></trkpt><trkpt lat="59.3327054009" lon="34.6421327256"><ele>164.58</ele><time>2026-08-15T12:10:11Z</time></trkpt><trkpt lat="59.3327611405" lon="34.6422496531"><ele>166.18</ele><time>2026-08-15T12:10:28Z</time></trkpt><trkpt lat="59.3327616435" lon="34.6422603820"><ele>166.19</ele><time>2026-08-15T12:10:29Z</time></trkpt><trkpt lat="59.3328223284" lon="34.6423086617"><ele>167.29</ele><time>2026-08-15T12:10:37Z</time></trkpt><trkpt lat="59.3328918144" lon="34.6422999445"><ele>168.32</ele><time>2026-08-15T12:11:01Z</time></trkpt><trkpt lat="59.3329925649" lon="34.6423385013"><ele>167.98</ele><time>2026-08-15T12:11:21Z</time></trkpt><trkpt lat="59.3330540881" lon="34.6423365735"><ele>167.10</ele><time>2026-08-15T12:11:43Z</time></trkpt><trkpt lat="59.3331568502" lon="34.6423549298"><ele>166.30</ele><time>2026-08-15T12:11:59Z</time></trkpt><trkpt lat="59.3332253303" lon="34.6423812490"><ele>167.56</ele><time>2026-08-15T12:12:22Z</time></trkpt><trkpt lat="59.3333347142" lon="34.6423032973"><ele>167.26</ele><time>2026-08-15T12:12:39Z</time></trkpt><trkpt lat="59.3333824072" lon="34.6422685962"><ele>171.14</ele><time>2026-08-15T12:13:05Z</time></trkpt><trkpt lat="59.3334154319" lon="34.6422512457"><ele>170.18</ele><time>2026-08-15T12:13:32Z</time></trkpt><trkpt lat="59.3333996739" lon="34.6422504075"><ele>170.09</ele><time>2026-08-15T12:13:59Z</time></trkpt><trkpt lat="59.3333974946" lon="34.6423609648"><ele>169.72</ele><time>2026-08-15T12:14:29Z</time></trkpt><trkpt lat="59.3332809862" lon="34.6425159462"><ele>168.73</ele><time>2026-08-15T12:14:48Z</time></trkpt><trkpt lat="59.3332713470" lon="34.6426576842"><ele>167.15</ele><time>2026-08-15T12:15:06Z</time></trkpt><trkpt lat="59.3332498055" lon="34.6429003403"><ele>164.38</ele><time>2026-08-15T12:15:24Z</time></trkpt><trkpt lat="59.3332425971" lon="34.6430898551"><ele>162.48</ele><time>2026-08-15T12:15:42Z</time></trkpt><trkpt lat="59.3331919704" lon="34.6433413122"><ele>163.54</ele><time>2026-08-15T12:16:01Z</time></trkpt><trkpt lat="59.3331931438" lon="34.6434352733"><ele>164.80</ele><time>2026-08-15T12:16:10Z</time></trkpt><trkpt lat="59.3331125099" lon="34.6435865667"><ele>166.71</ele><time>2026-08-15T12:16:29Z</time></trkpt><trkpt lat="59.3330959976" lon="34.6436259616"><ele>167.22</ele><time>2026-08-15T12:16:48Z</time></trkpt><trkpt lat="59.3331499770" lon="34.6435360238"><ele>168.14</ele><time>2026-08-15T12:17:18Z</time></trkpt><trkpt lat="59.3331469595" lon="34.6436244529"><ele>168.48</ele><time>2026-08-15T12:17:44Z</time></trkpt><trkpt lat="59.3331729434" lon="34.6437750757"><ele>169.87</ele><time>2026-08-15T12:18:04Z</time></trkpt><trkpt lat="59.3331665732" lon="34.6438619122"><ele>171.60</ele><time>2026-08-15T12:18:25Z</time></trkpt><trkpt lat="59.3332415912" lon="34.6439227648"><ele>169.19</ele><time>2026-08-15T12:18:43Z</time></trkpt><trkpt lat="59.3332917988" lon="34.6439744812"><ele>168.36</ele><time>2026-08-15T12:19:03Z</time></trkpt><trkpt lat="59.3333156873" lon="34.6440049075"><ele>168.20</ele><time>2026-08-15T12:19:11Z</time></trkpt><trkpt lat="59.3332684133" lon="34.6441795025"><ele>167.92</ele><time>2026-08-15T12:19:42Z</time></trkpt><trkpt lat="59.3332669884" lon="34.6442960110"><ele>167.54</ele><time>2026-08-15T12:20:01Z</time></trkpt><trkpt lat="59.3332534097" lon="34.6443527564"><ele>167.31</ele><time>2026-08-15T12:20:07Z</time></trkpt><trkpt lat="59.3330970872" lon="34.6445852704"><ele>168.08</ele><time>2026-08-15T12:20:30Z</time></trkpt><trkpt lat="59.3330845982" lon="34.6445193049"><ele>169.65</ele><time>2026-08-15T12:20:57Z</time></trkpt><trkpt lat="59.3330438621" lon="34.6445720270"><ele>171.92</ele><time>2026-08-15T12:21:29Z</time></trkpt><trkpt lat="59.3330345582" lon="34.6445768047"><ele>171.86</ele><time>2026-08-15T12:21:54Z</time></trkpt><trkpt lat="59.3330318760" lon="34.6446634736"><ele>174.29</ele><time>2026-08-15T12:22:17Z</time></trkpt><trkpt lat="59.3330364022" lon="34.6448606160"><ele>173.58</ele><time>2026-08-15T12:22:43Z</time></trkpt><trkpt lat="59.3330596201" lon="34.6449023578"><ele>173.34</ele><time>2026-08-15T12:23:00Z</time></trkpt><trkpt lat="59.3330654036" lon="34.6450887714"><ele>172.83</ele><time>2026-08-15T12:23:28Z</time></trkpt><trkpt lat="59.3330455385" lon="34.6453450900"><ele>171.93</ele><time>2026-08-15T12:23:48Z</time></trkpt><trkpt lat="59.3330063112" lon="34.6454577427"><ele>171.46</ele><time>2026-08-15T12:24:15Z</time></trkpt><trkpt lat="59.3329621386" lon="34.6456769295"><ele>169.29</ele><time>2026-08-15T12:24:40Z</time></trkpt><trkpt lat="59.3329220731" lon="34.6458185837"><ele>168.70</ele><time>2026-08-15T12:24:57Z</time></trkpt><trkpt lat="59.3327910639" lon="34.6459224354"><ele>168.91</ele><time>2026-08-15T12:25:16Z</time></trkpt><trkpt lat="59.3326754775" lon="34.6460243594"><ele>167.02</ele><time>2026-08-15T12:25:36Z</time></trkpt><trkpt lat="59.3326526787" lon="34.6460299753"><ele>166.98</ele><time>2026-08-15T12:26:00Z</time></trkpt><trkpt lat="59.3326185644" lon="34.6460745670"><ele>170.17</ele><time>2026-08-15T12:26:25Z</time></trkpt><trkpt lat="59.3326185644" lon="34.6460756566"><ele>171.89</ele><time>2026-08-15T12:26:54Z</time></trkpt><trkpt lat="59.3326237611" lon="34.6462333202"><ele>171.52</ele><time>2026-08-15T12:27:11Z</time></trkpt><trkpt lat="59.3326494098" lon="34.6464528423"><ele>170.31</ele><time>2026-08-15T12:27:31Z</time></trkpt><trkpt lat="59.3325904012" lon="34.6467215661"><ele>169.09</ele><time>2026-08-15T12:27:52Z</time></trkpt><trkpt lat="59.3326390162" lon="34.6468700934"><ele>168.78</ele><time>2026-08-15T12:28:20Z</time></trkpt><trkpt lat="59.3328226637" lon="34.6469524037"><ele>167.12</ele><time>2026-08-15T12:28:45Z</time></trkpt><trkpt lat="59.3329650722" lon="34.6469529066"><ele>165.10</ele><time>2026-08-15T12:29:05Z</time></trkpt><trkpt lat="59.3330228236" lon="34.6469845902"><ele>164.27</ele><time>2026-08-15T12:29:27Z</time></trkpt><trkpt lat="59.3330048863" lon="34.6470202971"><ele>164.08</ele><time>2026-08-15T12:29:34Z</time></trkpt><trkpt lat="59.3329800759" lon="34.6471692435"><ele>164.61</ele><time>2026-08-15T12:29:54Z</time></trkpt><trkpt lat="59.3329467997" lon="34.6473014262"><ele>164.70</ele><time>2026-08-15T12:30:13Z</time></trkpt><trkpt lat="59.3328992743" lon="34.6474436671"><ele>164.99</ele><time>2026-08-15T12:30:33Z</time></trkpt><trkpt lat="59.3328820076" lon="34.6474533062"><ele>165.00</ele><time>2026-08-15T12:31:01Z</time></trkpt><trkpt lat="59.3329426087" lon="34.6472726762"><ele>164.59</ele><time>2026-08-15T12:31:22Z</time></trkpt><trkpt lat="59.3330388330" lon="34.6470220573"><ele>163.14</ele><time>2026-08-15T12:31:43Z</time></trkpt><trkpt lat="59.3330808263" lon="34.6468721051"><ele>162.77</ele><time>2026-08-15T12:32:01Z</time></trkpt><trkpt lat="59.3330879509" lon="34.6465113480"><ele>159.06</ele><time>2026-08-15T12:32:24Z</time></trkpt><trkpt lat="59.3331731949" lon="34.6464041434"><ele>157.57</ele><time>2026-08-15T12:32:39Z</time></trkpt><trkpt lat="59.3332594447" lon="34.6463433746"><ele>156.80</ele><time>2026-08-15T12:32:58Z</time></trkpt><trkpt lat="59.3333072215" lon="34.6462311409"><ele>156.02</ele><time>2026-08-15T12:33:14Z</time></trkpt><trkpt lat="59.3333315291" lon="34.6460277960"><ele>155.77</ele><time>2026-08-15T12:33:37Z</time></trkpt><trkpt lat="59.3333617039" lon="34.6459628362"><ele>156.00</ele><time>2026-08-15T12:33:50Z</time></trkpt><trkpt lat="59.3333985005" lon="34.6460420452"><ele>157.34</ele><time>2026-08-15T12:34:08Z</time></trkpt><trkpt lat="59.3333933875" lon="34.6460002195"><ele>158.65</ele><time>2026-08-15T12:34:28Z</time></trkpt><trkpt lat="59.3334000930" lon="34.6460356750"><ele>158.74</ele><time>2026-08-15T12:34:36Z</time></trkpt><trkpt lat="59.3334012665" lon="34.6459902450"><ele>163.15</ele><time>2026-08-15T12:35:00Z</time></trkpt><trkpt lat="59.3334440980" lon="34.6458548773"><ele>165.48</ele><time>2026-08-15T12:35:20Z</time></trkpt><trkpt lat="59.3334324472" lon="34.6458315756"><ele>165.73</ele><time>2026-08-15T12:35:26Z</time></trkpt><trkpt lat="59.3334219698" lon="34.6459400374"><ele>165.23</ele><time>2026-08-15T12:35:51Z</time></trkpt><trkpt lat="59.3334642146" lon="34.6458111238"><ele>164.64</ele><time>2026-08-15T12:36:13Z</time></trkpt><trkpt lat="59.3334867619" lon="34.6456837188"><ele>161.68</ele><time>2026-08-15T12:36:33Z</time></trkpt><trkpt lat="59.3334484566" lon="34.6455120575"><ele>160.02</ele><time>2026-08-15T12:36:56Z</time></trkpt><trkpt lat="59.3334824871" lon="34.6454376262"><ele>167.11</ele><time>2026-08-15T12:37:18Z</time></trkpt><trkpt lat="59.3335533980" lon="34.6451813076"><ele>167.74</ele><time>2026-08-15T12:37:39Z</time></trkpt><trkpt lat="59.3336005043" lon="34.6451067086"><ele>168.32</ele><time>2026-08-15T12:37:55Z</time></trkpt><trkpt lat="59.3336730078" lon="34.6448550001"><ele>168.93</ele><time>2026-08-15T12:38:13Z</time></trkpt><trkpt lat="59.3337330222" lon="34.6445680037"><ele>170.43</ele><time>2026-08-15T12:38:30Z</time></trkpt><trkpt lat="59.3337513786" lon="34.6443841048"><ele>169.68</ele><time>2026-08-15T12:38:45Z</time></trkpt><trkpt lat="59.3337774463" lon="34.6442841925"><ele>167.42</ele><time>2026-08-15T12:39:02Z</time></trkpt><trkpt lat="59.3337854091" lon="34.6439617407"><ele>164.37</ele><time>2026-08-15T12:39:27Z</time></trkpt><trkpt lat="59.3337791227" lon="34.6438845433"><ele>165.10</ele><time>2026-08-15T12:39:43Z</time></trkpt><trkpt lat="59.3338296656" lon="34.6436597407"><ele>165.11</ele><time>2026-08-15T12:40:02Z</time></trkpt><trkpt lat="59.3338792864" lon="34.6434731595"><ele>164.55</ele><time>2026-08-15T12:40:20Z</time></trkpt><trkpt lat="59.3339888379" lon="34.6432597563"><ele>163.89</ele><time>2026-08-15T12:40:42Z</time></trkpt><trkpt lat="59.3341120519" lon="34.6430745162"><ele>160.83</ele><time>2026-08-15T12:41:03Z</time></trkpt><trkpt lat="59.3341300730" lon="34.6429169364"><ele>156.46</ele><time>2026-08-15T12:41:19Z</time></trkpt><trkpt lat="59.3341542128" lon="34.6427171119"><ele>160.05</ele><time>2026-08-15T12:41:39Z</time></trkpt><trkpt lat="59.3341704737" lon="34.6425261721"><ele>162.05</ele><time>2026-08-15T12:41:56Z</time></trkpt><trkpt lat="59.3341773469" lon="34.6423176304"><ele>164.67</ele><time>2026-08-15T12:42:18Z</time></trkpt><trkpt lat="59.3342184182" lon="34.6421140339"><ele>167.33</ele><time>2026-08-15T12:42:33Z</time></trkpt><trkpt lat="59.3341755867" lon="34.6419859584"><ele>166.40</ele><time>2026-08-15T12:42:51Z</time></trkpt><trkpt lat="59.3342910055" lon="34.6419489942"><ele>164.64</ele><time>2026-08-15T12:43:09Z</time></trkpt><trkpt lat="59.3343509361" lon="34.6418465674"><ele>164.52</ele><time>2026-08-15T12:43:22Z</time></trkpt><trkpt lat="59.3342505209" lon="34.6417681966"><ele>166.57</ele><time>2026-08-15T12:43:30Z</time></trkpt><trkpt lat="59.3342225254" lon="34.6417759079"><ele>168.73</ele><time>2026-08-15T12:43:48Z</time></trkpt><trkpt lat="59.3342144787" lon="34.6418553684"><ele>167.57</ele><time>2026-08-15T12:44:08Z</time></trkpt><trkpt lat="59.3342996389" lon="34.6418490820"><ele>167.81</ele><time>2026-08-15T12:44:26Z</time></trkpt><trkpt lat="59.3343480024" lon="34.6419455577"><ele>167.90</ele><time>2026-08-15T12:44:45Z</time></trkpt><trkpt lat="59.3344007246" lon="34.6418711264"><ele>165.97</ele><time>2026-08-15T12:45:09Z</time></trkpt><trkpt lat="59.3343598209" lon="34.6417427994"><ele>167.67</ele><time>2026-08-15T12:45:35Z</time></trkpt><trkpt lat="59.3343306519" lon="34.6417786740"><ele>169.02</ele><time>2026-08-15T12:45:59Z</time></trkpt><trkpt lat="59.3343692925" lon="34.6417751536"><ele>169.45</ele><time>2026-08-15T12:46:29Z</time></trkpt><trkpt lat="59.3343966175" lon="34.6417086013"><ele>169.12</ele><time>2026-08-15T12:47:11Z</time></trkpt><trkpt lat="59.3344096094" lon="34.6416920889"><ele>169.90</ele><time>2026-08-15T12:47:39Z</time></trkpt><trkpt lat="59.3344352581" lon="34.6417404525"><ele>170.53</ele><time>2026-08-15T12:48:07Z</time></trkpt><trkpt lat="59.3344797660" lon="34.6417863015"><ele>170.98</ele><time>2026-08-15T12:48:23Z</time></trkpt><trkpt lat="59.3345179874" lon="34.6418098547"><ele>170.83</ele><time>2026-08-15T12:48:47Z</time></trkpt><trkpt lat="59.3346084282" lon="34.6418370958"><ele>170.09</ele><time>2026-08-15T12:49:08Z</time></trkpt><trkpt lat="59.3347447179" lon="34.6417849604"><ele>172.11</ele><time>2026-08-15T12:49:27Z</time></trkpt><trkpt lat="59.3348554429" lon="34.6416992135"><ele>172.86</ele><time>2026-08-15T12:49:47Z</time></trkpt><trkpt lat="59.3349380046" lon="34.6418007184"><ele>172.16</ele><time>2026-08-15T12:50:06Z</time></trkpt><trkpt lat="59.3350554351" lon="34.6418305580"><ele>172.32</ele><time>2026-08-15T12:50:27Z</time></trkpt><trkpt lat="59.3351038825" lon="34.6418898180"><ele>169.96</ele><time>2026-08-15T12:50:56Z</time></trkpt><trkpt lat="59.3351822533" lon="34.6419836953"><ele>168.95</ele><time>2026-08-15T12:51:26Z</time></trkpt><trkpt lat="59.3351887073" lon="34.6419086773"><ele>168.27</ele><time>2026-08-15T12:51:54Z</time></trkpt><trkpt lat="59.3351498991" lon="34.6419221722"><ele>166.24</ele><time>2026-08-15T12:52:21Z</time></trkpt><trkpt lat="59.3351998553" lon="34.6417781711"><ele>166.25</ele><time>2026-08-15T12:52:42Z</time></trkpt><trkpt lat="59.3352971692" lon="34.6416697931"><ele>166.68</ele><time>2026-08-15T12:53:03Z</time></trkpt><trkpt lat="59.3354000151" lon="34.6416255366"><ele>166.65</ele><time>2026-08-15T12:53:25Z</time></trkpt><trkpt lat="59.3354449421" lon="34.6415977925"><ele>167.60</ele><time>2026-08-15T12:53:44Z</time></trkpt><trkpt lat="59.3354575988" lon="34.6415914223"><ele>169.98</ele><time>2026-08-15T12:54:12Z</time></trkpt><trkpt lat="59.3354603648" lon="34.6415771730"><ele>169.05</ele><time>2026-08-15T12:54:32Z</time></trkpt><trkpt lat="59.3354684114" lon="34.6417611558"><ele>168.66</ele><time>2026-08-15T12:54:52Z</time></trkpt><trkpt lat="59.3354792241" lon="34.6423136909"><ele>168.26</ele><time>2026-08-15T12:55:26Z</time></trkpt><trkpt lat="59.3354433496" lon="34.6424619667"><ele>168.79</ele><time>2026-08-15T12:55:44Z</time></trkpt><trkpt lat="59.3354230653" lon="34.6426564269"><ele>168.08</ele><time>2026-08-15T12:56:03Z</time></trkpt><trkpt lat="59.3353645597" lon="34.6428849176"><ele>167.12</ele><time>2026-08-15T12:56:21Z</time></trkpt><trkpt lat="59.3353332952" lon="34.6431045234"><ele>164.81</ele><time>2026-08-15T12:56:37Z</time></trkpt><trkpt lat="59.3352897931" lon="34.6433086228"><ele>164.29</ele><time>2026-08-15T12:56:59Z</time></trkpt><trkpt lat="59.3352877814" lon="34.6434998140"><ele>163.31</ele><time>2026-08-15T12:57:18Z</time></trkpt><trkpt lat="59.3352895416" lon="34.6436920110"><ele>163.78</ele><time>2026-08-15T12:57:43Z</time></trkpt><trkpt lat="59.3353083171" lon="34.6437240299"><ele>163.58</ele><time>2026-08-15T12:57:47Z</time></trkpt><trkpt lat="59.3353289366" lon="34.6439531073"><ele>163.75</ele><time>2026-08-15T12:58:09Z</time></trkpt><trkpt lat="59.3354190420" lon="34.6440882236"><ele>164.59</ele><time>2026-08-15T12:58:34Z</time></trkpt><trkpt lat="59.3355175294" lon="34.6442040615"><ele>163.69</ele><time>2026-08-15T12:58:49Z</time></trkpt><trkpt lat="59.3354840856" lon="34.6443162113"><ele>164.20</ele><time>2026-08-15T12:59:12Z</time></trkpt><trkpt lat="59.3353965785" lon="34.6443549357"><ele>166.08</ele><time>2026-08-15T12:59:30Z</time></trkpt><trkpt lat="59.3354064692" lon="34.6443696879"><ele>166.15</ele><time>2026-08-15T12:59:53Z</time></trkpt><trkpt lat="59.3354276754" lon="34.6443555225"><ele>168.17</ele><time>2026-08-15T13:00:21Z</time></trkpt><trkpt lat="59.3355096504" lon="34.6441986971"><ele>168.82</ele><time>2026-08-15T13:00:42Z</time></trkpt><trkpt lat="59.3355933856" lon="34.6440772433"><ele>168.79</ele><time>2026-08-15T13:01:05Z</time></trkpt><trkpt lat="59.3356381450" lon="34.6440503374"><ele>169.71</ele><time>2026-08-15T13:01:38Z</time></trkpt><trkpt lat="59.3356349599" lon="34.6440103557"><ele>167.38</ele><time>2026-08-15T13:02:09Z</time></trkpt><trkpt lat="59.3356775399" lon="34.6439347509"><ele>169.00</ele><time>2026-08-15T13:02:39Z</time></trkpt><trkpt lat="59.3357461877" lon="34.6438189130"><ele>170.95</ele><time>2026-08-15T13:02:57Z</time></trkpt><trkpt lat="59.3358548172" lon="34.6436743252"><ele>171.21</ele><time>2026-08-15T13:03:13Z</time></trkpt><trkpt lat="59.3359557353" lon="34.6435238700"><ele>170.26</ele><time>2026-08-15T13:03:30Z</time></trkpt><trkpt lat="59.3360410631" lon="34.6433854010"><ele>171.25</ele><time>2026-08-15T13:03:54Z</time></trkpt><trkpt lat="59.3361064419" lon="34.6432569064"><ele>172.94</ele><time>2026-08-15T13:04:11Z</time></trkpt><trkpt lat="59.3361528777" lon="34.6431544796"><ele>172.76</ele><time>2026-08-15T13:04:27Z</time></trkpt><trkpt lat="59.3362339307" lon="34.6429948881"><ele>172.45</ele><time>2026-08-15T13:04:44Z</time></trkpt><trkpt lat="59.3362656143" lon="34.6429294255"><ele>172.18</ele><time>2026-08-15T13:05:03Z</time></trkpt><trkpt lat="59.3361735810" lon="34.6428228915"><ele>170.33</ele><time>2026-08-15T13:05:19Z</time></trkpt><trkpt lat="59.3361336831" lon="34.6428267471"><ele>168.65</ele><time>2026-08-15T13:05:35Z</time></trkpt><trkpt lat="59.3360987306" lon="34.6428387333"><ele>169.22</ele><time>2026-08-15T13:06:04Z</time></trkpt><trkpt lat="59.3361332640" lon="34.6427169442"><ele>169.55</ele><time>2026-08-15T13:06:28Z</time></trkpt><trkpt lat="59.3361902609" lon="34.6425519884"><ele>168.07</ele><time>2026-08-15T13:06:42Z</time></trkpt><trkpt lat="59.3362049293" lon="34.6423506550"><ele>167.85</ele><time>2026-08-15T13:06:57Z</time></trkpt><trkpt lat="59.3362415582" lon="34.6422414389"><ele>167.96</ele><time>2026-08-15T13:07:10Z</time></trkpt><trkpt lat="59.3362754211" lon="34.6420445479"><ele>167.36</ele><time>2026-08-15T13:07:26Z</time></trkpt><trkpt lat="59.3362843897" lon="34.6420715377"><ele>167.70</ele><time>2026-08-15T13:07:46Z</time></trkpt><trkpt lat="59.3362852279" lon="34.6420080028"><ele>168.15</ele><time>2026-08-15T13:08:16Z</time></trkpt><trkpt lat="59.3362728227" lon="34.6419975255"><ele>168.07</ele><time>2026-08-15T13:08:46Z</time></trkpt><trkpt lat="59.3362761755" lon="34.6418484114"><ele>167.60</ele><time>2026-08-15T13:09:06Z</time></trkpt><trkpt lat="59.3363195099" lon="34.6417738963"><ele>166.94</ele><time>2026-08-15T13:09:22Z</time></trkpt><trkpt lat="59.3363858946" lon="34.6417170670"><ele>165.30</ele><time>2026-08-15T13:09:43Z</time></trkpt><trkpt lat="59.3364371080" lon="34.6415404603"><ele>164.71</ele><time>2026-08-15T13:10:02Z</time></trkpt><trkpt lat="59.3364541233" lon="34.6413149871"><ele>163.80</ele><time>2026-08-15T13:10:20Z</time></trkpt><trkpt lat="59.3364967871" lon="34.6410776116"><ele>164.36</ele><time>2026-08-15T13:10:37Z</time></trkpt><trkpt lat="59.3365153950" lon="34.6409566607"><ele>166.05</ele><time>2026-08-15T13:11:05Z</time></trkpt><trkpt lat="59.3364910875" lon="34.6408160962"><ele>166.56</ele><time>2026-08-15T13:11:26Z</time></trkpt><trkpt lat="59.3364487588" lon="34.6406295989"><ele>167.80</ele><time>2026-08-15T13:11:46Z</time></trkpt><trkpt lat="59.3363935221" lon="34.6404270083"><ele>166.00</ele><time>2026-08-15T13:12:01Z</time></trkpt><trkpt lat="59.3362864014" lon="34.6403198875"><ele>165.18</ele><time>2026-08-15T13:12:22Z</time></trkpt><trkpt lat="59.3361629359" lon="34.6401808318"><ele>162.75</ele><time>2026-08-15T13:12:37Z</time></trkpt><trkpt lat="59.3361254688" lon="34.6401132736"><ele>162.66</ele><time>2026-08-15T13:12:57Z</time></trkpt><trkpt lat="59.3362404685" lon="34.6400264371"><ele>164.96</ele><time>2026-08-15T13:13:17Z</time></trkpt><trkpt lat="59.3362327572" lon="34.6399815939"><ele>166.68</ele><time>2026-08-15T13:13:36Z</time></trkpt><trkpt lat="59.3361846451" lon="34.6399411932"><ele>167.13</ele><time>2026-08-15T13:14:00Z</time></trkpt><trkpt lat="59.3361598346" lon="34.6399607230"><ele>167.12</ele><time>2026-08-15T13:14:30Z</time></trkpt><trkpt lat="59.3361692224" lon="34.6399395168"><ele>168.57</ele><time>2026-08-15T13:15:01Z</time></trkpt><trkpt lat="59.3361804541" lon="34.6399384271"><ele>167.79</ele><time>2026-08-15T13:15:32Z</time></trkpt><trkpt lat="59.3360556476" lon="34.6399085037"><ele>167.35</ele><time>2026-08-15T13:15:49Z</time></trkpt><trkpt lat="59.3359560706" lon="34.6398608107"><ele>167.43</ele><time>2026-08-15T13:16:00Z</time></trkpt><trkpt lat="59.3358190265" lon="34.6397335734"><ele>167.88</ele><time>2026-08-15T13:16:16Z</time></trkpt><trkpt lat="59.3357596826" lon="34.6396351699"><ele>171.23</ele><time>2026-08-15T13:16:33Z</time></trkpt><trkpt lat="59.3356148433" lon="34.6396390256"><ele>172.91</ele><time>2026-08-15T13:16:52Z</time></trkpt><trkpt lat="59.3355104886" lon="34.6396302246"><ele>172.65</ele><time>2026-08-15T13:17:09Z</time></trkpt><trkpt lat="59.3354333751" lon="34.6396945138"><ele>173.44</ele><time>2026-08-15T13:17:28Z</time></trkpt><trkpt lat="59.3354234006" lon="34.6396575496"><ele>173.16</ele><time>2026-08-15T13:17:54Z</time></trkpt><trkpt lat="59.3354148511" lon="34.6396186575"><ele>172.69</ele><time>2026-08-15T13:18:20Z</time></trkpt><trkpt lat="59.3353462871" lon="34.6397344116"><ele>172.88</ele><time>2026-08-15T13:18:43Z</time></trkpt><trkpt lat="59.3352804892" lon="34.6398250200"><ele>172.19</ele><time>2026-08-15T13:19:00Z</time></trkpt><trkpt lat="59.3350568600" lon="34.6397494152"><ele>171.24</ele><time>2026-08-15T13:19:16Z</time></trkpt><trkpt lat="59.3349362444" lon="34.6396774985"><ele>172.42</ele><time>2026-08-15T13:19:34Z</time></trkpt><trkpt lat="59.3348465580" lon="34.6395889018"><ele>175.83</ele><time>2026-08-15T13:19:54Z</time></trkpt><trkpt lat="59.3348204903" lon="34.6395700425"><ele>176.92</ele><time>2026-08-15T13:20:23Z</time></trkpt><trkpt lat="59.3347120285" lon="34.6397755668"><ele>180.19</ele><time>2026-08-15T13:20:55Z</time></trkpt><trkpt lat="59.3347577099" lon="34.6395712160"><ele>181.77</ele><time>2026-08-15T13:21:24Z</time></trkpt><trkpt lat="59.3347886391" lon="34.6394744050"><ele>184.64</ele><time>2026-08-15T13:21:54Z</time></trkpt><trkpt lat="59.3347474840" lon="34.6395259537"><ele>184.72</ele><time>2026-08-15T13:22:19Z</time></trkpt><trkpt lat="59.3345931731" lon="34.6394413803"><ele>183.26</ele><time>2026-08-15T13:22:44Z</time></trkpt><trkpt lat="59.3345178198" lon="34.6394111216"><ele>182.44</ele><time>2026-08-15T13:22:57Z</time></trkpt><trkpt lat="59.3343526125" lon="34.6393737383"><ele>180.08</ele><time>2026-08-15T13:23:15Z</time></trkpt><trkpt lat="59.3342662789" lon="34.6393925976"><ele>178.92</ele><time>2026-08-15T13:23:36Z</time></trkpt><trkpt lat="59.3341154885" lon="34.6393859759"><ele>179.88</ele><time>2026-08-15T13:23:56Z</time></trkpt><trkpt lat="59.3340120558" lon="34.6393247042"><ele>181.41</ele><time>2026-08-15T13:24:13Z</time></trkpt><trkpt lat="59.3338791188" lon="34.6391703933"><ele>181.52</ele><time>2026-08-15T13:24:34Z</time></trkpt><trkpt lat="59.3337502889" lon="34.6391014103"><ele>180.07</ele><time>2026-08-15T13:24:53Z</time></trkpt><trkpt lat="59.3336053658" lon="34.6390126459"><ele>177.70</ele><time>2026-08-15T13:25:12Z</time></trkpt><trkpt lat="59.3335274141" lon="34.6390605904"><ele>177.17</ele><time>2026-08-15T13:25:35Z</time></trkpt><trkpt lat="59.3334099837" lon="34.6391966287"><ele>176.26</ele><time>2026-08-15T13:25:59Z</time></trkpt><trkpt lat="59.3334016856" lon="34.6392150689"><ele>176.19</ele><time>2026-08-15T13:26:01Z</time></trkpt><trkpt lat="59.3332288507" lon="34.6392469201"><ele>176.17</ele><time>2026-08-15T13:26:22Z</time></trkpt><trkpt lat="59.3331994303" lon="34.6392749157"><ele>176.73</ele><time>2026-08-15T13:26:33Z</time></trkpt><trkpt lat="59.3331675790" lon="34.6394555457"><ele>176.84</ele><time>2026-08-15T13:26:53Z</time></trkpt><trkpt lat="59.3330531660" lon="34.6395909972"><ele>176.37</ele><time>2026-08-15T13:27:13Z</time></trkpt><trkpt lat="59.3329437822" lon="34.6396436356"><ele>176.26</ele><time>2026-08-15T13:27:29Z</time></trkpt><trkpt lat="59.3328344822" lon="34.6396052465"><ele>176.99</ele><time>2026-08-15T13:27:45Z</time></trkpt><trkpt lat="59.3327422813" lon="34.6397171449"><ele>176.53</ele><time>2026-08-15T13:28:05Z</time></trkpt><trkpt lat="59.3326850329" lon="34.6397636645"><ele>175.78</ele><time>2026-08-15T13:28:27Z</time></trkpt><trkpt lat="59.3326575402" lon="34.6398593020"><ele>175.63</ele><time>2026-08-15T13:28:38Z</time></trkpt><trkpt lat="59.3325407803" lon="34.6401707735"><ele>174.52</ele><time>2026-08-15T13:28:59Z</time></trkpt><trkpt lat="59.3324458972" lon="34.6401464660"><ele>178.56</ele><time>2026-08-15T13:29:39Z</time></trkpt><trkpt lat="59.3323981203" lon="34.6401628107"><ele>179.32</ele><time>2026-08-15T13:30:06Z</time></trkpt><trkpt lat="59.3322159816" lon="34.6401467174"><ele>178.91</ele><time>2026-08-15T13:30:28Z</time></trkpt><trkpt lat="59.3321118783" lon="34.6400337294"><ele>177.60</ele><time>2026-08-15T13:30:49Z</time></trkpt><trkpt lat="59.3320888281" lon="34.6400136966"><ele>177.33</ele><time>2026-08-15T13:30:54Z</time></trkpt><trkpt lat="59.3320397940" lon="34.6399925742"><ele>177.01</ele><time>2026-08-15T13:31:03Z</time></trkpt><trkpt lat="59.3318768498" lon="34.6400508285"><ele>176.30</ele><time>2026-08-15T13:31:22Z</time></trkpt><trkpt lat="59.3317723274" lon="34.6401353180"><ele>177.66</ele><time>2026-08-15T13:31:40Z</time></trkpt><trkpt lat="59.3317262270" lon="34.6402194723"><ele>179.02</ele><time>2026-08-15T13:32:00Z</time></trkpt><trkpt lat="59.3317242153" lon="34.6402258426"><ele>179.03</ele><time>2026-08-15T13:32:01Z</time></trkpt><trkpt lat="59.3315860815" lon="34.6403157804"><ele>178.78</ele><time>2026-08-15T13:32:32Z</time></trkpt><trkpt lat="59.3316101376" lon="34.6403613780"><ele>180.28</ele><time>2026-08-15T13:33:03Z</time></trkpt><trkpt lat="59.3315826450" lon="34.6402836777"><ele>184.26</ele><time>2026-08-15T13:33:34Z</time></trkpt><trkpt lat="59.3314095587" lon="34.6405925509"><ele>183.49</ele><time>2026-08-15T13:34:38Z</time></trkpt><trkpt lat="59.3312498834" lon="34.6405764576"><ele>181.36</ele><time>2026-08-15T13:34:52Z</time></trkpt><trkpt lat="59.3311903719" lon="34.6405266691"><ele>181.06</ele><time>2026-08-15T13:35:15Z</time></trkpt><trkpt lat="59.3311341293" lon="34.6405789722"><ele>180.03</ele><time>2026-08-15T13:35:28Z</time></trkpt><trkpt lat="59.3310978357" lon="34.6405803133"><ele>179.96</ele><time>2026-08-15T13:35:51Z</time></trkpt><trkpt lat="59.3310230691" lon="34.6405182872"><ele>179.75</ele><time>2026-08-15T13:36:08Z</time></trkpt><trkpt lat="59.3309542537" lon="34.6404854301"><ele>179.68</ele><time>2026-08-15T13:36:30Z</time></trkpt><trkpt lat="59.3309085723" lon="34.6404473763"><ele>179.82</ele><time>2026-08-15T13:36:45Z</time></trkpt><trkpt lat="59.3307468016" lon="34.6403775550"><ele>180.38</ele><time>2026-08-15T13:37:09Z</time></trkpt><trkpt lat="59.3306706101" lon="34.6401675045"><ele>179.26</ele><time>2026-08-15T13:37:29Z</time></trkpt><trkpt lat="59.3306327239" lon="34.6401285287"><ele>178.66</ele><time>2026-08-15T13:37:36Z</time></trkpt><trkpt lat="59.3305174727" lon="34.6400516666"><ele>179.64</ele><time>2026-08-15T13:37:57Z</time></trkpt><trkpt lat="59.3304120284" lon="34.6401273552"><ele>179.92</ele><time>2026-08-15T13:38:14Z</time></trkpt><trkpt lat="59.3303334899" lon="34.6401622240"><ele>180.19</ele><time>2026-08-15T13:38:25Z</time></trkpt><trkpt lat="59.3302023970" lon="34.6402815823"><ele>179.56</ele><time>2026-08-15T13:38:45Z</time></trkpt><trkpt lat="59.3300525285" lon="34.6403636411"><ele>177.70</ele><time>2026-08-15T13:39:06Z</time></trkpt><trkpt lat="59.3299374450" lon="34.6405323688"><ele>174.49</ele><time>2026-08-15T13:39:25Z</time></trkpt><trkpt lat="59.3299081922" lon="34.6406374779"><ele>172.50</ele><time>2026-08-15T13:39:45Z</time></trkpt><trkpt lat="59.3298531231" lon="34.6406396572"><ele>171.18</ele><time>2026-08-15T13:40:13Z</time></trkpt><trkpt lat="59.3298899196" lon="34.6406254079"><ele>170.95</ele><time>2026-08-15T13:40:43Z</time></trkpt><trkpt lat="59.3298428133" lon="34.6405908745"><ele>169.83</ele><time>2026-08-15T13:41:09Z</time></trkpt><trkpt lat="59.3298166618" lon="34.6405975800"><ele>169.95</ele><time>2026-08-15T13:41:16Z</time></trkpt><trkpt lat="59.3296645302" lon="34.6405617055"><ele>169.86</ele><time>2026-08-15T13:41:36Z</time></trkpt><trkpt lat="59.3295985647" lon="34.6405128390"><ele>169.52</ele><time>2026-08-15T13:41:55Z</time></trkpt><trkpt lat="59.3295702338" lon="34.6407285891"><ele>168.95</ele><time>2026-08-15T13:42:13Z</time></trkpt><trkpt lat="59.3295435794" lon="34.6407875139"><ele>168.58</ele><time>2026-08-15T13:42:27Z</time></trkpt><trkpt lat="59.3294849060" lon="34.6408375539"><ele>167.57</ele><time>2026-08-15T13:42:40Z</time></trkpt><trkpt lat="59.3294020090" lon="34.6408070438"><ele>167.80</ele><time>2026-08-15T13:43:03Z</time></trkpt><trkpt lat="59.3292356282" lon="34.6407761984"><ele>168.28</ele><time>2026-08-15T13:43:23Z</time></trkpt><trkpt lat="59.3291378953" lon="34.6409290005"><ele>168.69</ele><time>2026-08-15T13:43:39Z</time></trkpt><trkpt lat="59.3290039524" lon="34.6410128195"><ele>168.12</ele><time>2026-08-15T13:43:56Z</time></trkpt><trkpt lat="59.3288950715" lon="34.6410730854"><ele>166.90</ele><time>2026-08-15T13:44:12Z</time></trkpt><trkpt lat="59.3288263399" lon="34.6410707384"><ele>165.30</ele><time>2026-08-15T13:44:29Z</time></trkpt><trkpt lat="59.3287262600" lon="34.6409994084"><ele>165.03</ele><time>2026-08-15T13:44:45Z</time></trkpt><trkpt lat="59.3286587857" lon="34.6408792958"><ele>165.63</ele><time>2026-08-15T13:45:00Z</time></trkpt><trkpt lat="59.3286358193" lon="34.6407948062"><ele>165.55</ele><time>2026-08-15T13:45:08Z</time></trkpt><trkpt lat="59.3285370804" lon="34.6405881085"><ele>165.20</ele><time>2026-08-15T13:45:24Z</time></trkpt><trkpt lat="59.3284527585" lon="34.6404666547"><ele>165.63</ele><time>2026-08-15T13:45:40Z</time></trkpt><trkpt lat="59.3283760641" lon="34.6403184626"><ele>166.48</ele><time>2026-08-15T13:46:00Z</time></trkpt><trkpt lat="59.3283624854" lon="34.6402875334"><ele>166.75</ele><time>2026-08-15T13:46:05Z</time></trkpt><trkpt lat="59.3282737210" lon="34.6401110105"><ele>167.39</ele><time>2026-08-15T13:46:22Z</time></trkpt><trkpt lat="59.3282449711" lon="34.6400565282"><ele>167.12</ele><time>2026-08-15T13:46:38Z</time></trkpt><trkpt lat="59.3282200769" lon="34.6402064804"><ele>166.73</ele><time>2026-08-15T13:47:02Z</time></trkpt><trkpt lat="59.3281739764" lon="34.6403983422"><ele>165.70</ele><time>2026-08-15T13:47:16Z</time></trkpt><trkpt lat="59.3281640019" lon="34.6403845958"><ele>164.76</ele><time>2026-08-15T13:47:40Z</time></trkpt><trkpt lat="59.3281640857" lon="34.6404062212"><ele>163.74</ele><time>2026-08-15T13:48:06Z</time></trkpt><trkpt lat="59.3281330727" lon="34.6404315345"><ele>163.70</ele><time>2026-08-15T13:48:27Z</time></trkpt><trkpt lat="59.3281494174" lon="34.6404853463"><ele>163.91</ele><time>2026-08-15T13:48:59Z</time></trkpt><trkpt lat="59.3281035684" lon="34.6404482145"><ele>163.97</ele><time>2026-08-15T13:49:24Z</time></trkpt><trkpt lat="59.3280563783" lon="34.6403550915"><ele>164.51</ele><time>2026-08-15T13:49:50Z</time></trkpt><trkpt lat="59.3279888202" lon="34.6403637249"><ele>165.28</ele><time>2026-08-15T13:50:21Z</time></trkpt><trkpt lat="59.3280122057" lon="34.6403683349"><ele>164.54</ele><time>2026-08-15T13:50:46Z</time></trkpt><trkpt lat="59.3280015606" lon="34.6403784771"><ele>163.75</ele><time>2026-08-15T13:51:15Z</time></trkpt><trkpt lat="59.3279552087" lon="34.6405046247"><ele>163.23</ele><time>2026-08-15T13:51:42Z</time></trkpt><trkpt lat="59.3278723955" lon="34.6406818181"><ele>163.15</ele><time>2026-08-15T13:51:59Z</time></trkpt><trkpt lat="59.3278107885" lon="34.6407984104"><ele>162.72</ele><time>2026-08-15T13:52:14Z</time></trkpt><trkpt lat="59.3277578987" lon="34.6408952214"><ele>162.08</ele><time>2026-08-15T13:52:28Z</time></trkpt><trkpt lat="59.3277078588" lon="34.6410360374"><ele>161.71</ele><time>2026-08-15T13:52:46Z</time></trkpt><trkpt lat="59.3276916817" lon="34.6410597581"><ele>161.64</ele><time>2026-08-15T13:52:49Z</time></trkpt><trkpt lat="59.3276393786" lon="34.6411987301"><ele>161.03</ele><time>2026-08-15T13:52:58Z</time></trkpt><trkpt lat="59.3275568169" lon="34.6413586568"><ele>160.78</ele><time>2026-08-15T13:53:16Z</time></trkpt><trkpt lat="59.3275193498" lon="34.6415080223"><ele>161.43</ele><time>2026-08-15T13:53:32Z</time></trkpt><trkpt lat="59.3274543900" lon="34.6414752491"><ele>162.00</ele><time>2026-08-15T13:53:50Z</time></trkpt><trkpt lat="59.3274748418" lon="34.6413962077"><ele>163.20</ele><time>2026-08-15T13:55:03Z</time></trkpt><trkpt lat="59.3274586648" lon="34.6413475089"><ele>164.13</ele><time>2026-08-15T13:55:31Z</time></trkpt><trkpt lat="59.3274083734" lon="34.6415298991"><ele>165.38</ele><time>2026-08-15T13:55:56Z</time></trkpt><trkpt lat="59.3272955529" lon="34.6417718846"><ele>166.49</ele><time>2026-08-15T13:56:15Z</time></trkpt><trkpt lat="59.3272757716" lon="34.6418167278"><ele>166.72</ele><time>2026-08-15T13:56:20Z</time></trkpt><trkpt lat="59.3271896895" lon="34.6421141177"><ele>167.21</ele><time>2026-08-15T13:56:46Z</time></trkpt><trkpt lat="59.3271393981" lon="34.6423250902"><ele>167.01</ele><time>2026-08-15T13:57:06Z</time></trkpt><trkpt lat="59.3270803895" lon="34.6425076481"><ele>165.49</ele><time>2026-08-15T13:57:22Z</time></trkpt><trkpt lat="59.3268453609" lon="34.6426161937"><ele>164.19</ele><time>2026-08-15T13:57:44Z</time></trkpt><trkpt lat="59.3268806487" lon="34.6426680777"><ele>166.11</ele><time>2026-08-15T13:58:17Z</time></trkpt><trkpt lat="59.3269423395" lon="34.6426596958"><ele>165.64</ele><time>2026-08-15T13:58:42Z</time></trkpt><trkpt lat="59.3268668186" lon="34.6425960772"><ele>164.04</ele><time>2026-08-15T13:59:12Z</time></trkpt><trkpt lat="59.3268792238" lon="34.6425840911"><ele>164.52</ele><time>2026-08-15T13:59:42Z</time></trkpt><trkpt lat="59.3268866837" lon="34.6425997652"><ele>163.83</ele><time>2026-08-15T14:00:05Z</time></trkpt><trkpt lat="59.3269622047" lon="34.6425444447"><ele>164.64</ele><time>2026-08-15T14:00:30Z</time></trkpt><trkpt lat="59.3269042019" lon="34.6425824147"><ele>164.86</ele><time>2026-08-15T14:01:05Z</time></trkpt><trkpt lat="59.3269046210" lon="34.6425996814"><ele>164.76</ele><time>2026-08-15T14:01:35Z</time></trkpt><trkpt lat="59.3269142602" lon="34.6426892839"><ele>165.80</ele><time>2026-08-15T14:01:57Z</time></trkpt><trkpt lat="59.3269224744" lon="34.6428435948"><ele>166.99</ele><time>2026-08-15T14:02:23Z</time></trkpt><trkpt lat="59.3268757034" lon="34.6427919623"><ele>166.69</ele><time>2026-08-15T14:02:50Z</time></trkpt><trkpt lat="59.3268778827" lon="34.6428126656"><ele>169.16</ele><time>2026-08-15T14:03:20Z</time></trkpt><trkpt lat="59.3268218078" lon="34.6428026911"><ele>170.54</ele><time>2026-08-15T14:03:47Z</time></trkpt><trkpt lat="59.3268824928" lon="34.6427221410"><ele>171.39</ele><time>2026-08-15T14:04:18Z</time></trkpt><trkpt lat="59.3268451933" lon="34.6428787149"><ele>171.62</ele><time>2026-08-15T14:04:47Z</time></trkpt><trkpt lat="59.3268436845" lon="34.6429033577"><ele>172.14</ele><time>2026-08-15T14:05:21Z</time></trkpt><trkpt lat="59.3268762901" lon="34.6428826544"><ele>170.59</ele><time>2026-08-15T14:06:00Z</time></trkpt><trkpt lat="59.3268944789" lon="34.6428573411"><ele>171.60</ele><time>2026-08-15T14:06:32Z</time></trkpt><trkpt lat="59.3269229773" lon="34.6429031063"><ele>173.70</ele><time>2026-08-15T14:07:01Z</time></trkpt><trkpt lat="59.3269122485" lon="34.6429046150"><ele>174.28</ele><time>2026-08-15T14:07:33Z</time></trkpt><trkpt lat="59.3269361369" lon="34.6429563314"><ele>175.89</ele><time>2026-08-15T14:08:07Z</time></trkpt><trkpt lat="59.3268781342" lon="34.6429084707"><ele>174.74</ele><time>2026-08-15T14:08:46Z</time></trkpt><trkpt lat="59.3268669024" lon="34.6429487877"><ele>175.34</ele><time>2026-08-15T14:09:18Z</time></trkpt><trkpt lat="59.3268141802" lon="34.6428825706"><ele>177.15</ele><time>2026-08-15T14:09:49Z</time></trkpt><trkpt lat="59.3268217240" lon="34.6428518090"><ele>180.03</ele><time>2026-08-15T14:10:14Z</time></trkpt><trkpt lat="59.3268558383" lon="34.6429387294"><ele>180.23</ele><time>2026-08-15T14:10:45Z</time></trkpt><trkpt lat="59.3268575147" lon="34.6429238934"><ele>179.83</ele><time>2026-08-15T14:11:18Z</time></trkpt><trkpt lat="59.3268845882" lon="34.6428931318"><ele>179.45</ele><time>2026-08-15T14:12:05Z</time></trkpt></trkseg></trk></gpx>